M I D A S
Marine Information and Data Acquisition System
Tripno 1684 of the Zeeleeuw from 2009-04-29 06:57:01 to 2009-04-29 15:12:57
Back to CruiseResearch ActivitiesStationsMapUnderway DataData graphs

EquipmentUnitsComment
TimeDGPSUTC
LatitudeDGPSDM.mWGS84
LongitudeDGPSDM.mWGS84
TemperatureSBE03/SBE38deg celciusITS90
ConductivitySBE21S/mITS90
SalinitySBE21 Practical Salinity Units
ChlorophylAChelsea fluorimeterg/lCalibrated in Aceton
Missing or incorrect values are displayed as -999
Sea surface data collected by the RV Zeeleeuw from 2009-04-29 06:58:23 to 2009-04-29 15:18:10
                                                                                    Next 1000 lines
Time Latitude Longitude Temperature Conductivity Salinity ChlorophylA
2009-04-29 06:58:33 51°13.663 2°55.953 -999 0.062172 0.328186 -1.10504
2009-04-29 06:58:38 51°13.664 2°55.95 -999 0.065053 0.343846 -1.10504
2009-04-29 06:58:44 51°13.665 2°55.945 -999 0.066494 0.351711 -1.10504
2009-04-29 06:58:49 51°13.666 2°55.941 -999 0.066494 0.351711 -1.10504
2009-04-29 06:58:54 51°13.668 2°55.937 -999 0.066494 0.351722 -1.10504
2009-04-29 06:59:00 51°13.669 2°55.931 -999 0.066494 0.351728 -1.10504
2009-04-29 06:59:06 51°13.671 2°55.925 -999 0.066391 0.351173 -1.10504
2009-04-29 06:59:12 51°13.673 2°55.918 -999 0.066494 0.351734 -1.10504
2009-04-29 06:59:17 51°13.675 2°55.912 -999 0.066494 0.35174 -1.10504
2009-04-29 06:59:22 51°13.677 2°55.906 -999 0.066494 0.35174 -1.10504
2009-04-29 06:59:27 51°13.68 2°55.899 -999 0.066597 0.352307 -1.10504
2009-04-29 06:59:32 51°13.682 2°55.893 -999 0.066597 0.352307 -1.10504
2009-04-29 06:59:37 51°13.684 2°55.885 -999 0.066597 0.352313 -1.10504
2009-04-29 06:59:42 51°13.686 2°55.878 -999 0.066494 0.351752 -1.10504
2009-04-29 06:59:47 51°13.689 2°55.871 -999 0.066597 0.352319 -1.10504
2009-04-29 06:59:52 51°13.691 2°55.863 -999 0.066597 0.352319 -1.10504
2009-04-29 06:59:57 51°13.693 2°55.856 -999 0.066597 0.352319 -1.10504
2009-04-29 07:00:02 51°13.696 2°55.849 -999 0.066494 0.351764 -1.10504
2009-04-29 07:00:07 51°13.698 2°55.841 -999 0.066597 0.352325 -1.10504
2009-04-29 07:00:12 51°13.701 2°55.833 -999 0.066494 0.351764 -1.10504
2009-04-29 07:00:17 51°13.703 2°55.826 -999 0.066494 0.351764 -1.10504
2009-04-29 07:00:22 51°13.706 2°55.818 -999 0.066494 0.351764 -1.10504
2009-04-29 07:00:27 51°13.708 2°55.811 -999 0.066494 0.351764 -1.10504
2009-04-29 07:00:32 51°13.711 2°55.803 -999 0.066494 0.35177 -1.10504
2009-04-29 07:00:37 51°13.714 2°55.796 -999 0.066494 0.351776 -1.10504
2009-04-29 07:00:42 51°13.717 2°55.789 -999 0.066597 0.352343 -1.10504
2009-04-29 07:00:47 51°13.72 2°55.781 -999 0.066391 0.351221 -1.10504
2009-04-29 07:00:52 51°13.724 2°55.774 -999 0.066391 0.351221 -1.10504
2009-04-29 07:00:57 51°13.728 2°55.767 -999 0.066494 0.351788 -1.10504
2009-04-29 07:01:02 51°13.732 2°55.76 -999 0.066391 0.351227 -1.070216
2009-04-29 07:01:07 51°13.736 2°55.752 -999 0.066391 0.351233 -1.10504
2009-04-29 07:01:12 51°13.74 2°55.746 -999 0.066391 0.351233 -1.10504
2009-04-29 07:01:17 51°13.745 2°55.739 -999 0.066494 0.3518 -1.10504
2009-04-29 07:01:22 51°13.749 2°55.732 -999 0.066494 0.3518 -1.10504
2009-04-29 07:01:27 51°13.754 2°55.726 -999 0.066391 0.351239 -1.10504
2009-04-29 07:01:32 51°13.759 2°55.72 -999 0.066391 0.351251 -1.10504
2009-04-29 07:01:37 51°13.764 2°55.714 -999 0.066494 0.351812 -1.10504
2009-04-29 07:01:42 51°13.769 2°55.709 -999 0.066494 0.351818 -1.10504
2009-04-29 07:01:47 51°13.774 2°55.704 -999 0.066494 0.351818 -1.10504
2009-04-29 07:01:52 51°13.779 2°55.698 -999 0.066494 0.351818 -1.10504
2009-04-29 07:01:57 51°13.784 2°55.693 -999 0.066391 0.351262 -1.10504
2009-04-29 07:02:02 51°13.789 2°55.688 -999 0.066597 0.352391 -1.10504
2009-04-29 07:02:07 51°13.795 2°55.683 -999 0.066391 0.351268 -1.10504
2009-04-29 07:02:12 51°13.8 2°55.677 -999 0.066494 0.351829 -1.10504
2009-04-29 07:02:17 51°13.806 2°55.673 -999 0.066494 0.351829 -1.10504
2009-04-29 07:02:22 51°13.811 2°55.668 -999 0.066494 0.351829 -1.10504
2009-04-29 07:02:27 51°13.816 2°55.664 -999 0.066494 0.351829 -1.10504
2009-04-29 07:02:32 51°13.821 2°55.659 -999 0.066494 0.351835 -1.10504
2009-04-29 07:02:37 51°13.827 2°55.655 -999 0.066391 0.351274 -1.10504
2009-04-29 07:02:42 51°13.832 2°55.651 -999 0.066494 0.351835 -1.10504
2009-04-29 07:02:47 51°13.838 2°55.647 -999 0.066391 0.351274 -1.10504
2009-04-29 07:02:52 51°13.843 2°55.643 -999 0.066391 0.351274 -1.10504
2009-04-29 07:02:57 51°13.848 2°55.64 -999 0.066391 0.35128 -1.10504
2009-04-29 07:03:02 51°13.854 2°55.637 -999 0.066391 0.351286 -1.10504
2009-04-29 07:03:07 51°13.86 2°55.634 -999 0.066391 0.351286 -1.10504
2009-04-29 07:03:12 51°13.865 2°55.632 -999 0.066391 0.351286 -1.10504
2009-04-29 07:03:17 51°13.871 2°55.63 -999 0.066288 0.350731 -1.10504
2009-04-29 07:03:22 51°13.876 2°55.628 -999 0.066288 0.350731 -1.10504
2009-04-29 07:03:27 51°13.882 2°55.627 -999 0.066391 0.351298 -1.10504
2009-04-29 07:03:32 51°13.887 2°55.627 -999 0.066288 0.350737 -1.10504
2009-04-29 07:03:37 51°13.893 2°55.627 -999 0.066288 0.350743 -1.10504
2009-04-29 07:03:42 51°13.899 2°55.627 -999 0.066288 0.350749 -1.10504
2009-04-29 07:03:47 51°13.904 2°55.628 -999 0.066288 0.350749 -1.10504
2009-04-29 07:03:52 51°13.909 2°55.629 -999 0.066288 0.350749 -1.10504
2009-04-29 07:03:57 51°13.914 2°55.631 -999 0.066288 0.350755 -1.10504
2009-04-29 07:04:02 51°13.92 2°55.634 -999 0.066288 0.350761 -1.10504
2009-04-29 07:04:07 51°13.925 2°55.636 -999 0.066288 0.350761 -1.10504
2009-04-29 07:04:12 51°13.929 2°55.639 -999 0.067317 0.356386 -1.10504
2009-04-29 07:04:17 51°13.933 2°55.643 -999 0.067523 0.357527 -1.10504
2009-04-29 07:04:22 51°13.937 2°55.646 -999 0.067523 0.357527 -1.10504
2009-04-29 07:04:27 51°13.94 2°55.649 -999 0.067317 0.35641 -1.10504
2009-04-29 07:04:32 51°13.942 2°55.651 -999 0.067523 0.357539 -1.10504
2009-04-29 07:04:37 51°13.944 2°55.653 -999 0.06742 0.356978 -1.10504
2009-04-29 07:04:42 51°13.945 2°55.653 -999 0.06742 0.356984 -1.10504
2009-04-29 07:04:47 51°13.945 2°55.653 -999 0.067214 0.355861 -1.10504
2009-04-29 07:04:52 51°13.945 2°55.652 -999 0.067214 0.355861 -1.10504
2009-04-29 07:04:57 51°13.946 2°55.649 -999 0.06742 0.356984 -1.10504
2009-04-29 07:05:02 51°13.946 2°55.646 -999 0.067523 0.357545 -1.10504
2009-04-29 07:05:07 51°13.946 2°55.641 -999 0.067523 0.357545 -1.10504
2009-04-29 07:05:12 51°13.946 2°55.636 -999 0.063612 0.336212 -1.10504
2009-04-29 07:05:17 51°13.947 2°55.63 -999 0.054351 0.285995 -1.10504
2009-04-29 07:05:22 51°13.948 2°55.624 -999 0.054351 0.285995 -1.10504
2009-04-29 07:05:27 51°13.95 2°55.617 -999 0.051469 0.270443 -1.10504
2009-04-29 07:05:32 51°13.953 2°55.61 -999 0.051572 0.270979 -1.10504
2009-04-29 07:05:37 51°13.956 2°55.603 -999 0.05929 0.312644 -1.10504
2009-04-29 07:05:41 51°13.96 2°55.598 -999 0.064642 0.341796 -1.10504
2009-04-29 07:05:46 51°13.965 2°55.591 -999 0.068038 0.360403 -1.10504
2009-04-29 07:05:51 51°13.97 2°55.584 -999 0.068038 0.360403 -1.10504
2009-04-29 07:05:56 51°13.976 2°55.577 -999 0.067729 0.358742 -1.10504
2009-04-29 07:06:01 51°13.982 2°55.57 -999 0.068346 0.362133 -1.10504
2009-04-29 07:06:06 51°13.988 2°55.562 -999 0.068141 0.361021 -1.10504
2009-04-29 07:06:11 51°13.995 2°55.554 -999 0.06742 0.357087 -1.10504
2009-04-29 07:06:15 51°14.001 2°55.548 -999 0.066803 0.35371 -1.10504
2009-04-29 07:06:20 51°14.008 2°55.54 -999 0.066803 0.35371 -1.10504
2009-04-29 07:06:25 51°14.015 2°55.533 -999 0.067935 0.359896 -1.10504
2009-04-29 07:06:29 51°14.021 2°55.526 -999 0.067317 0.356531 -1.10504
2009-04-29 07:06:35 51°14.031 2°55.516 -999 0.067523 0.357642 -1.10504
2009-04-29 07:06:40 51°14.039 2°55.508 -999 0.067729 0.35876 -1.10504
2009-04-29 07:06:44 51°14.045 2°55.501 -999 0.068243 0.361564 -1.10504
2009-04-29 07:06:49 51°14.053 2°55.493 -999 0.068243 0.361564 -1.10504
2009-04-29 07:06:54 51°14.061 2°55.484 -999 0.067009 0.35481 -1.10504
2009-04-29 07:06:59 51°14.07 2°55.476 -999 0.067317 0.356488 -1.10504
2009-04-29 07:07:04 51°14.078 2°55.467 -999 0.06742 0.35705 -1.10504
2009-04-29 07:07:09 51°14.086 2°55.458 -999 0.067523 0.357612 -1.10504
2009-04-29 07:07:13 51°14.093 2°55.452 -999 0.067935 0.359878 -1.10504
2009-04-29 07:07:19 51°14.103 2°55.441 -999 0.067935 0.359878 -1.10504
2009-04-29 07:07:23 51°14.11 2°55.434 -999 0.067317 0.356507 -1.10504
2009-04-29 07:07:29 51°14.12 2°55.423 -999 0.067626 0.358198 -1.10504
2009-04-29 07:07:33 51°14.127 2°55.416 -999 0.067523 0.357642 -1.10504
2009-04-29 07:07:39 51°14.138 2°55.406 -999 0.067935 0.359896 -1.10504
2009-04-29 07:07:44 51°14.146 2°55.398 -999 0.067626 0.358222 -1.10504
2009-04-29 07:07:49 51°14.155 2°55.389 -999 0.067626 0.358222 -1.10504
2009-04-29 07:07:54 51°14.164 2°55.38 -999 0.068141 0.361039 -1.10504
2009-04-29 07:07:59 51°14.173 2°55.371 -999 0.067935 0.359927 -1.10504
2009-04-29 07:08:04 51°14.181 2°55.362 -999 0.068243 0.361613 -1.10504
2009-04-29 07:08:09 51°14.19 2°55.352 -999 0.068346 0.362188 -1.10504
2009-04-29 07:08:13 51°14.196 2°55.344 -999 0.071434 0.379085 -1.10504
2009-04-29 07:08:18 51°14.205 2°55.334 -999 0.071434 0.379085 -1.10504
2009-04-29 07:08:23 51°14.214 2°55.324 -999 0.070096 0.371761 -1.10504
2009-04-29 07:08:29 51°14.223 2°55.311 -999 0.071022 0.376831 -1.10504
2009-04-29 07:08:33 51°14.23 2°55.302 -999 0.072257 0.38361 -1.10504
2009-04-29 07:08:38 51°14.238 2°55.29 -999 0.071331 0.378528 -1.10504
2009-04-29 07:08:43 51°14.246 2°55.277 -999 0.070919 0.376267 -1.10504
2009-04-29 07:08:48 51°14.254 2°55.264 -999 0.070919 0.376267 -1.10504
2009-04-29 07:08:53 51°14.262 2°55.251 -999 0.070096 0.371754 -1.10504
2009-04-29 07:08:59 51°14.271 2°55.235 -999 0.069684 0.36949 -1.10504
2009-04-29 07:09:03 51°14.277 2°55.224 -999 0.071537 0.37963 -1.10504
2009-04-29 07:09:08 51°14.285 2°55.211 -999 0.070713 0.375134 -1.10504
2009-04-29 07:09:13 51°14.293 2°55.197 -999 0.070405 0.37345 -1.10504
2009-04-29 07:09:19 51°14.302 2°55.18 -999 0.070405 0.37345 -1.10504
2009-04-29 07:09:23 51°14.309 2°55.169 -999 0.072257 0.38361 -1.10504
2009-04-29 07:09:28 51°14.316 2°55.154 -999 0.06989 0.370647 -1.10504
2009-04-29 07:09:33 51°14.324 2°55.139 -999 0.070096 0.371767 -1.10504
2009-04-29 07:09:39 51°14.333 2°55.121 -999 0.069273 0.367257 -1.10504
2009-04-29 07:09:43 51°14.339 2°55.108 -999 0.069067 0.366125 -1.10504
2009-04-29 07:09:48 51°14.347 2°55.092 -999 0.069067 0.366125 -1.10504
2009-04-29 07:09:53 51°14.355 2°55.077 -999 0.071228 0.377964 -1.10504
2009-04-29 07:09:59 51°14.364 2°55.058 -999 0.071228 0.377977 -1.10504
2009-04-29 07:10:04 51°14.372 2°55.042 -999 0.072051 0.382508 -1.10504
2009-04-29 07:10:08 51°14.378 2°55.029 -999 0.070919 0.376312 -1.10504
2009-04-29 07:10:13 51°14.385 2°55.012 -999 0.07164 0.380265 -1.10504
2009-04-29 07:10:18 51°14.392 2°54.995 -999 0.07164 0.380265 -1.10504
2009-04-29 07:10:24 51°14.4 2°54.974 -999 0.071331 0.378573 -1.10504
2009-04-29 07:10:29 51°14.406 2°54.956 -999 0.070508 0.374052 -1.10504
2009-04-29 07:10:33 51°14.411 2°54.942 -999 0.068346 0.362206 -1.10504
2009-04-29 07:10:38 51°14.417 2°54.923 -999 0.069273 0.36727 -1.10504
2009-04-29 07:10:43 51°14.423 2°54.904 -999 0.068655 0.363881 -1.10504
2009-04-29 07:10:48 51°14.43 2°54.886 -999 0.068655 0.363881 -1.10504
2009-04-29 07:10:53 51°14.436 2°54.867 -999 0.068655 0.363881 -1.070216
2009-04-29 07:10:58 51°14.443 2°54.848 -999 0.067729 0.358815 -1.10504
2009-04-29 07:11:03 51°14.449 2°54.828 -999 0.069067 0.366132 -1.10504
2009-04-29 07:11:08 51°14.455 2°54.809 -999 0.069067 0.366144 -1.10504
2009-04-29 07:11:13 51°14.46 2°54.789 -999 0.067626 0.358277 -1.10504
2009-04-29 07:11:18 51°14.466 2°54.768 -999 0.067626 0.358277 -1.10504
2009-04-29 07:11:23 51°14.472 2°54.748 -999 0.068243 0.361656 -1.10504
2009-04-29 07:11:28 51°14.478 2°54.728 -999 0.068243 0.361662 -1.10504
2009-04-29 07:11:33 51°14.485 2°54.707 -999 0.067729 0.358857 -1.10504
2009-04-29 07:11:39 51°14.492 2°54.683 -999 0.067111 0.355479 -1.070216
2009-04-29 07:11:43 51°14.497 2°54.666 -999 0.06742 0.357171 -1.10504
2009-04-29 07:11:48 51°14.504 2°54.645 -999 0.06742 0.357171 -1.10504
2009-04-29 07:11:53 51°14.51 2°54.624 -999 0.068346 0.362237 -1.10504
2009-04-29 07:11:58 51°14.517 2°54.603 -999 0.067729 0.358863 -1.10504
2009-04-29 07:12:04 51°14.525 2°54.578 -999 0.068449 0.362812 -1.10504
2009-04-29 07:12:08 51°14.53 2°54.56 -999 0.06917 0.366763 -1.10504
2009-04-29 07:12:13 51°14.537 2°54.539 -999 0.067626 0.358326 -1.10504
2009-04-29 07:12:18 51°14.544 2°54.517 -999 0.067626 0.358326 -1.10504
2009-04-29 07:12:23 51°14.55 2°54.495 -999 0.066906 0.354392 -1.10504
2009-04-29 07:12:29 51°14.558 2°54.468 -999 0.06742 0.357195 -1.10504
2009-04-29 07:12:33 51°14.564 2°54.45 -999 0.068552 0.363387 -1.10504
2009-04-29 07:12:38 51°14.57 2°54.428 -999 0.069684 0.369584 -1.070216
2009-04-29 07:12:44 51°14.578 2°54.402 -999 0.068449 0.362824 -1.10504
2009-04-29 07:12:48 51°14.584 2°54.384 -999 0.068449 0.362824 -1.10504
2009-04-29 07:12:53 51°14.59 2°54.362 -999 0.067009 0.354954 -1.10504
2009-04-29 07:12:58 51°14.597 2°54.339 -999 0.068038 0.360574 -1.070216
2009-04-29 07:13:03 51°14.604 2°54.317 -999 0.069375 0.367907 -1.10504
2009-04-29 07:13:09 51°14.612 2°54.29 -999 0.067935 0.36003 -1.10504
2009-04-29 07:13:13 51°14.618 2°54.273 -999 0.068552 0.363411 -1.10504
2009-04-29 07:13:19 51°14.626 2°54.246 -999 0.068552 0.363411 -1.10504
2009-04-29 07:13:24 51°14.632 2°54.223 -999 0.067832 0.359468 -1.10504
2009-04-29 07:13:28 51°14.638 2°54.206 -999 0.068243 0.361718 -1.10504
2009-04-29 07:13:33 51°14.644 2°54.183 -999 0.067523 0.357788 -1.10504
2009-04-29 07:13:39 51°14.652 2°54.156 -999 0.066906 0.354416 -1.10504
2009-04-29 07:13:43 51°14.657 2°54.138 -999 0.068038 0.360605 -1.10504
2009-04-29 07:13:49 51°14.665 2°54.111 -999 0.068038 0.360605 -1.10504
2009-04-29 07:13:53 51°14.67 2°54.094 -999 0.0667 0.353292 -1.10504
2009-04-29 07:13:58 51°14.676 2°54.071 -999 0.065053 0.344305 -1.10504
2009-04-29 07:14:04 51°14.684 2°54.044 -999 0.066082 0.349923 -1.10504
2009-04-29 07:14:08 51°14.689 2°54.026 -999 0.065362 0.345994 -1.10504
2009-04-29 07:14:13 51°14.696 2°54.004 -999 0.067009 0.354978 -1.10504
2009-04-29 07:14:19 51°14.704 2°53.977 -999 0.067009 0.354978 -1.10504
2009-04-29 07:14:23 51°14.709 2°53.96 -999 0.066803 0.35386 -1.10504
2009-04-29 07:14:29 51°14.718 2°53.933 -999 0.065671 0.347689 -1.10504
2009-04-29 07:14:33 51°14.723 2°53.916 -999 0.0667 0.353286 -1.10504
2009-04-29 07:14:38 51°14.73 2°53.894 -999 0.066288 0.351046 -1.10504
2009-04-29 07:14:44 51°14.739 2°53.868 -999 0.067009 0.35499 -1.10504
2009-04-29 07:14:48 51°14.745 2°53.85 -999 0.067009 0.35499 -1.10504
2009-04-29 07:14:53 51°14.752 2°53.828 -999 0.067626 0.358374 -1.10504
2009-04-29 07:14:58 51°14.759 2°53.807 -999 0.066185 0.350526 -1.10504
2009-04-29 07:15:04 51°14.768 2°53.781 -999 0.067111 0.355582 -1.10504
2009-04-29 07:15:09 51°14.776 2°53.759 -999 0.067317 0.3567 -1.10504
2009-04-29 07:15:13 51°14.781 2°53.742 -999 0.067317 0.356718 -1.10504
2009-04-29 07:15:18 51°14.789 2°53.72 -999 0.067317 0.356718 -1.10504
2009-04-29 07:15:23 51°14.796 2°53.698 -999 0.06742 0.357256 -1.10504
2009-04-29 07:15:28 51°14.804 2°53.677 -999 0.067317 0.356688 -1.10504
2009-04-29 07:15:33 51°14.811 2°53.655 -999 0.068346 0.362317 -1.10504
2009-04-29 07:15:38 51°14.819 2°53.633 -999 0.066391 0.351631 -1.10504
2009-04-29 07:15:43 51°14.827 2°53.612 -999 0.070816 0.375844 -1.10504
2009-04-29 07:15:48 51°14.835 2°53.59 -999 0.070816 0.375844 -1.10504
2009-04-29 07:15:53 51°14.843 2°53.568 -999 0.067729 0.358961 -1.10504
2009-04-29 07:15:58 51°14.851 2°53.546 -999 0.070405 0.373621 -1.10504
2009-04-29 07:16:04 51°14.86 2°53.52 -999 0.066906 0.354476 -1.10504
2009-04-29 07:16:08 51°14.866 2°53.502 -999 0.065465 0.346608 -1.10504
2009-04-29 07:16:13 51°14.874 2°53.48 -999 0.068346 0.362348 -1.10504
2009-04-29 07:16:19 51°14.884 2°53.453 -999 0.068346 0.362348 -1.10504
2009-04-29 07:16:23 51°14.89 2°53.435 -999 0.068038 0.360666 -1.070216
2009-04-29 07:16:28 51°14.898 2°53.412 -999 0.06742 0.357292 -1.10504
2009-04-29 07:16:33 51°14.906 2°53.389 -999 0.066597 0.352796 -1.10504
2009-04-29 07:16:39 51°14.915 2°53.362 -999 0.065774 0.348304 -1.10504
2009-04-29 07:16:44 51°14.922 2°53.338 -999 0.065259 0.345491 -1.10504
2009-04-29 07:16:48 51°14.928 2°53.32 -999 0.065259 0.345491 -1.10504
2009-04-29 07:16:53 51°14.935 2°53.296 -999 0.065979 0.349432 -1.10504
2009-04-29 07:16:58 51°14.943 2°53.273 -999 0.062378 0.329793 -1.10504
2009-04-29 07:17:03 51°14.95 2°53.249 -999 0.062892 0.332581 -1.10504
2009-04-29 07:17:09 51°14.959 2°53.221 -999 0.065156 0.344907 -1.10504
2009-04-29 07:17:13 51°14.965 2°53.202 -999 0.06423 0.339853 -1.10504
2009-04-29 07:17:18 51°14.972 2°53.179 -999 0.06423 0.339853 -1.10504
2009-04-29 07:17:23 51°14.98 2°53.156 -999 0.064847 0.343235 -1.10504
2009-04-29 07:17:29 51°14.989 2°53.127 -999 0.06495 0.343808 -1.10504
2009-04-29 07:17:33 51°14.995 2°53.109 -999 0.064539 0.34157 -1.10504
2009-04-29 07:17:38 51°15.003 2°53.086 -999 0.06495 0.343825 -1.10504
2009-04-29 07:17:43 51°15.011 2°53.062 -999 0.065979 0.349456 -1.070216
2009-04-29 07:17:49 51°15.02 2°53.034 -999 0.065979 0.349456 -1.070216
2009-04-29 07:17:53 51°15.026 2°53.016 -999 0.06423 0.339934 -1.070216
2009-04-29 07:17:58 51°15.033 2°52.992 -999 0.062172 0.328723 -1.070216
2009-04-29 07:18:03 51°15.04 2°52.968 -999 0.063098 0.333746 -1.10504
2009-04-29 07:18:08 51°15.048 2°52.945 -999 0.06351 0.335981 -1.10504
2009-04-29 07:18:13 51°15.055 2°52.921 -999 0.063612 0.336542 -1.10504
2009-04-29 07:18:18 51°15.063 2°52.898 -999 0.063612 0.336542 -1.10504
2009-04-29 07:18:24 51°15.072 2°52.87 -999 0.06423 0.339911 -1.10504
2009-04-29 07:18:28 51°15.078 2°52.851 -999 0.065465 0.346655 -1.10504
2009-04-29 07:18:33 51°15.085 2°52.828 -999 0.064127 0.339373 -1.10504
2009-04-29 07:18:39 51°15.094 2°52.8 -999 0.063304 0.3349 -1.10504
2009-04-29 07:18:43 51°15.1 2°52.782 -999 0.062686 0.331551 -1.070216
2009-04-29 07:18:48 51°15.108 2°52.758 -999 0.062686 0.331551 -1.070216
2009-04-29 07:18:53 51°15.116 2°52.735 -999 0.063304 0.3349 -1.10504
2009-04-29 07:18:59 51°15.124 2°52.707 -999 0.064333 0.3405 -1.070216
2009-04-29 07:19:04 51°15.132 2°52.683 -999 0.06248 0.330397 -1.10504
2009-04-29 07:19:08 51°15.138 2°52.664 -999 0.062789 0.332077 -1.10504
2009-04-29 07:19:13 51°15.145 2°52.641 -999 0.063304 0.334878 -1.10504
2009-04-29 07:19:18 51°15.153 2°52.617 -999 0.063304 0.334878 -1.10504
2009-04-29 07:19:24 51°15.161 2°52.589 -999 0.063201 0.334329 -1.10504
2009-04-29 07:19:29 51°15.168 2°52.565 -999 0.060525 0.31979 -1.10504
2009-04-29 07:19:33 51°15.174 2°52.546 -999 0.06351 0.336044 -1.10504
2009-04-29 07:19:38 51°15.181 2°52.522 -999 0.062378 0.329882 -1.10504
2009-04-29 07:19:43 51°15.187 2°52.498 -999 0.063612 0.336587 -1.10504
2009-04-29 07:19:49 51°15.196 2°52.469 -999 0.063612 0.336587 -1.10504
2009-04-29 07:19:53 51°15.201 2°52.449 -999 0.059805 0.315874 -1.10504
2009-04-29 07:19:58 51°15.209 2°52.424 -999 0.061657 0.325931 -1.10504
2009-04-29 07:20:03 51°15.216 2°52.399 -999 0.061966 0.327604 -1.10504
2009-04-29 07:20:08 51°15.223 2°52.374 -999 0.061246 0.323704 -1.10504
2009-04-29 07:20:13 51°15.231 2°52.349 -999 0.059599 0.314757 -1.10504
2009-04-29 07:20:18 51°15.238 2°52.324 -999 0.059599 0.314757 -1.10504
2009-04-29 07:20:23 51°15.246 2°52.299 -999 0.060216 0.318103 -1.10504
2009-04-29 07:20:28 51°15.254 2°52.274 -999 0.05929 0.313071 -1.10504
2009-04-29 07:20:33 51°15.261 2°52.249 -999 0.061554 0.325371 -1.10504
2009-04-29 07:20:39 51°15.271 2°52.219 -999 0.058776 0.310296 -1.10504
2009-04-29 07:20:43 51°15.277 2°52.199 -999 0.060011 0.317012 -1.10504
2009-04-29 07:20:48 51°15.285 2°52.173 -999 0.060011 0.317012 -1.10504
2009-04-29 07:20:53 51°15.293 2°52.148 -999 0.060216 0.31814 -1.10504
2009-04-29 07:20:58 51°15.3 2°52.123 -999 0.057747 0.304738 -1.10504
2009-04-29 07:21:04 51°15.31 2°52.093 -999 0.059187 0.312565 -1.10504
2009-04-29 07:21:08 51°15.316 2°52.073 -999 0.060422 0.31928 -1.10504
2009-04-29 07:21:13 51°15.324 2°52.047 -999 0.059496 0.314251 -1.070216
2009-04-29 07:21:19 51°15.334 2°52.017 -999 0.059496 0.314251 -1.070216
2009-04-29 07:21:23 51°15.34 2°51.997 -999 0.059393 0.313687 -1.10504
2009-04-29 07:21:29 51°15.35 2°51.967 -999 0.059393 0.313687 -1.10504
2009-04-29 07:21:33 51°15.356 2°51.947 -999 0.057952 0.305874 -1.10504
2009-04-29 07:21:38 51°15.364 2°51.922 -999 0.058055 0.306432 -1.10504
2009-04-29 07:21:44 51°15.373 2°51.892 -999 0.057129 0.301404 -1.10504
2009-04-29 07:21:48 51°15.379 2°51.872 -999 0.057129 0.301404 -1.10504
2009-04-29 07:21:53 51°15.387 2°51.847 -999 0.058673 0.309779 -1.070216
2009-04-29 07:21:58 51°15.395 2°51.821 -999 0.056923 0.30031 -1.10504
2009-04-29 07:22:03 51°15.403 2°51.796 -999 0.057438 0.303097 -1.10504
2009-04-29 07:22:09 51°15.412 2°51.766 -999 0.057541 0.303639 -1.10504
2009-04-29 07:22:13 51°15.418 2°51.746 -999 0.056306 0.296943 -1.10504
2009-04-29 07:22:18 51°15.426 2°51.721 -999 0.056306 0.296943 -1.10504
2009-04-29 07:22:23 51°15.434 2°51.696 -999 0.056923 0.300285 -1.070216
2009-04-29 07:22:29 51°15.444 2°51.666 -999 0.05682 0.299713 -1.070216
2009-04-29 07:22:33 51°15.45 2°51.646 -999 0.057026 0.300842 -1.10504
2009-04-29 07:22:39 51°15.46 2°51.615 -999 0.057335 0.302534 -1.070216
2009-04-29 07:22:43 51°15.466 2°51.595 -999 0.056409 0.29752 -1.070216
2009-04-29 07:22:48 51°15.474 2°51.57 -999 0.056409 0.29752 -1.070216
2009-04-29 07:22:53 51°15.482 2°51.545 -999 0.057541 0.303675 -1.10504
2009-04-29 07:22:58 51°15.49 2°51.519 -999 0.056409 0.297555 -1.10504
2009-04-29 07:23:04 51°15.5 2°51.489 -999 0.057232 0.302022 -1.070216
2009-04-29 07:23:08 51°15.506 2°51.469 -999 0.056615 0.298679 -1.10504
2009-04-29 07:23:13 51°15.514 2°51.444 -999 0.056718 0.299231 -1.070216
2009-04-29 07:23:19 51°15.524 2°51.413 -999 0.056718 0.299231 -1.070216
2009-04-29 07:23:23 51°15.53 2°51.393 -999 0.055997 0.295328 -1.10504
2009-04-29 07:23:29 51°15.54 2°51.362 -999 0.056718 0.299246 -1.10504
2009-04-29 07:23:33 51°15.546 2°51.342 -999 0.054762 0.288675 -1.10504
2009-04-29 07:23:38 51°15.555 2°51.317 -999 0.057747 0.304846 -1.10504
2009-04-29 07:23:44 51°15.564 2°51.287 -999 0.056409 0.29759 -1.10504
2009-04-29 07:23:48 51°15.571 2°51.266 -999 0.056409 0.29759 -1.10504
2009-04-29 07:23:53 51°15.579 2°51.241 -999 0.057335 0.3026 -1.10504
2009-04-29 07:23:58 51°15.587 2°51.216 -999 0.057644 0.304268 -1.10504
2009-04-29 07:24:04 51°15.597 2°51.185 -999 0.055791 0.294229 -1.10504
2009-04-29 07:24:09 51°15.605 2°51.16 -999 0.055174 0.2909 -1.070216
2009-04-29 07:24:13 51°15.611 2°51.14 -999 0.056409 0.297595 -1.070216
2009-04-29 07:24:18 51°15.619 2°51.114 -999 0.056409 0.297595 -1.070216
2009-04-29 07:24:23 51°15.627 2°51.089 -999 0.056306 0.297048 -1.10504
2009-04-29 07:24:29 51°15.637 2°51.059 -999 0.056615 0.298719 -1.10504
2009-04-29 07:24:33 51°15.643 2°51.038 -999 0.055277 0.291456 -1.10504
2009-04-29 07:24:38 51°15.651 2°51.013 -999 0.055997 0.295347 -1.070216
2009-04-29 07:24:43 51°15.659 2°50.988 -999 0.056409 0.29759 -1.10504
2009-04-29 07:24:48 51°15.667 2°50.963 -999 0.056409 0.29759 -1.10504
2009-04-29 07:24:53 51°15.675 2°50.937 -999 0.056203 0.296491 -1.10504
2009-04-29 07:24:58 51°15.683 2°50.912 -999 0.0561 0.295939 -1.10504
2009-04-29 07:25:04 51°15.693 2°50.882 -999 0.057232 0.302094 -1.10504
2009-04-29 07:25:08 51°15.699 2°50.862 -999 0.055483 0.292618 -1.10504
2009-04-29 07:25:13 51°15.707 2°50.836 -999 0.055277 0.291495 -1.070216
2009-04-29 07:25:19 51°15.716 2°50.805 -999 0.055277 0.291495 -1.070216
2009-04-29 07:25:23 51°15.723 2°50.785 -999 0.057644 0.304304 -1.070216
2009-04-29 07:25:29 51°15.732 2°50.755 -999 0.055894 0.294825 -1.070216
2009-04-29 07:25:33 51°15.738 2°50.734 -999 0.053424 0.281469 -1.070216
2009-04-29 07:25:39 51°15.748 2°50.704 -999 0.057335 0.302626 -1.10504
2009-04-29 07:25:43 51°15.754 2°50.684 -999 0.057129 0.301521 -1.070216
2009-04-29 07:25:48 51°15.762 2°50.659 -999 0.057129 0.301521 -1.070216
2009-04-29 07:25:53 51°15.77 2°50.634 -999 0.054865 0.289285 -1.10504
2009-04-29 07:25:59 51°15.78 2°50.603 -999 0.054762 0.288709 -1.10504
2009-04-29 07:26:04 51°15.789 2°50.579 -999 0.052498 0.276473 -1.10504
2009-04-29 07:26:09 51°15.797 2°50.555 -999 0.055071 0.290363 -1.10504
2009-04-29 07:26:13 51°15.804 2°50.535 -999 0.052807 0.278133 -1.10504
2009-04-29 07:26:18 51°15.813 2°50.511 -999 0.052807 0.278133 -1.10504
2009-04-29 07:26:23 51°15.822 2°50.487 -999 0.054762 0.288694 -1.10504
2009-04-29 07:26:29 51°15.833 2°50.458 -999 0.055791 0.294278 -1.070216
2009-04-29 07:26:33 51°15.84 2°50.439 -999 0.055071 0.290402 -1.10504
2009-04-29 07:26:38 51°15.85 2°50.415 -999 0.054659 0.288196 -1.070216
2009-04-29 07:26:43 51°15.859 2°50.392 -999 0.053116 0.279832 -1.10504
2009-04-29 07:26:49 51°15.87 2°50.363 -999 0.053116 0.279832 -1.10504
2009-04-29 07:26:53 51°15.879 2°50.346 -999 0.049823 0.262084 -1.10504
2009-04-29 07:26:58 51°15.89 2°50.324 -999 0.052807 0.278124 -1.10504
2009-04-29 07:27:03 51°15.901 2°50.304 -999 0.045192 0.237181 -1.10504
2009-04-29 07:27:09 51°15.914 2°50.279 -999 0.051366 0.270319 -1.10504
2009-04-29 07:27:13 51°15.924 2°50.264 -999 0.048794 0.256468 -1.070216
2009-04-29 07:27:18 51°15.937 2°50.246 -999 0.048794 0.256468 -1.070216
2009-04-29 07:27:24 51°15.953 2°50.226 -999 0.048999 0.257582 -1.10504
2009-04-29 07:27:28 51°15.964 2°50.213 -999 0.048794 0.256477 -1.10504
2009-04-29 07:27:33 51°15.977 2°50.197 -999 0.045501 0.238836 -1.10504
2009-04-29 07:27:39 51°15.994 2°50.179 -999 0.045912 0.241039 -1.070216
2009-04-29 07:27:43 51°16.005 2°50.167 -999 0.043648 0.22895 -1.10504
2009-04-29 07:27:48 51°16.02 2°50.154 -999 0.043648 0.22895 -1.10504
2009-04-29 07:27:53 51°16.034 2°50.139 -999 0.045603 0.239422 -1.10504
2009-04-29 07:27:59 51°16.052 2°50.124 -999 0.044266 0.232277 -1.10504
2009-04-29 07:28:04 51°16.067 2°50.11 -999 0.043648 0.228999 -1.10504
2009-04-29 07:28:08 51°16.078 2°50.1 -999 0.044883 0.235605 -1.070216
2009-04-29 07:28:13 51°16.093 2°50.088 -999 0.043854 0.230102 -1.070216
2009-04-29 07:28:18 51°16.109 2°50.076 -999 0.043854 0.230102 -1.070216
2009-04-29 07:28:23 51°16.124 2°50.063 -999 0.044883 0.235605 -1.10504
2009-04-29 07:28:29 51°16.142 2°50.049 -999 0.045295 0.237806 -1.10504
2009-04-29 07:28:33 51°16.154 2°50.04 -999 0.044986 0.236175 -1.10504
2009-04-29 07:28:38 51°16.169 2°50.028 -999 0.044574 0.233981 -1.10504
2009-04-29 07:28:44 51°16.188 2°50.014 -999 0.04478 0.235082 -1.070216
2009-04-29 07:28:49 51°16.203 2°50.003 -999 0.04478 0.235082 -1.070216
2009-04-29 07:28:53 51°16.215 2°49.993 -999 0.043854 0.230121 -1.10504
2009-04-29 07:28:58 51°16.231 2°49.982 -999 0.043545 0.228461 -1.10504
2009-04-29 07:29:03 51°16.246 2°49.97 -999 0.04478 0.235055 -1.10504
2009-04-29 07:29:09 51°16.264 2°49.956 -999 0.043854 0.230106 -1.070216
2009-04-29 07:29:13 51°16.277 2°49.947 -999 0.044574 0.233954 -1.10504
2009-04-29 07:29:19 51°16.295 2°49.932 -999 0.044574 0.233954 -1.10504
2009-04-29 07:29:24 51°16.31 2°49.921 -999 0.044266 0.232312 -1.10504
2009-04-29 07:29:28 51°16.323 2°49.911 -999 0.043339 0.227374 -1.10504
2009-04-29 07:29:33 51°16.338 2°49.9 -999 0.045295 0.23783 -1.070216
2009-04-29 07:29:39 51°16.357 2°49.886 -999 0.043442 0.227942 -1.070216
2009-04-29 07:29:43 51°16.369 2°49.878 -999 0.043134 0.226294 -1.070216
2009-04-29 07:29:49 51°16.388 2°49.864 -999 0.043134 0.226294 -1.070216
2009-04-29 07:29:53 51°16.4 2°49.855 -999 0.044163 0.231785 -1.10504
2009-04-29 07:29:59 51°16.419 2°49.843 -999 0.043751 0.229583 -1.070216
2009-04-29 07:30:04 51°16.434 2°49.832 -999 0.044471 0.233447 -1.070216
2009-04-29 07:30:08 51°16.447 2°49.824 -999 0.043031 0.225748 -1.10504
2009-04-29 07:30:13 51°16.462 2°49.813 -999 0.046221 0.242816 -1.10504
2009-04-29 07:30:19 51°16.481 2°49.799 -999 0.046221 0.242816 -1.10504
2009-04-29 07:30:23 51°16.494 2°49.79 -999 0.045089 0.236776 -1.10504
2009-04-29 07:30:29 51°16.513 2°49.776 -999 0.045089 0.236784 -1.10504
2009-04-29 07:30:33 51°16.525 2°49.767 -999 0.046221 0.242836 -1.070216
2009-04-29 07:30:38 51°16.541 2°49.755 -999 0.045501 0.238975 -1.10504
2009-04-29 07:30:44 51°16.559 2°49.742 -999 0.045398 0.23842 -1.10504
2009-04-29 07:30:48 51°16.572 2°49.732 -999 0.045398 0.23842 -1.10504
2009-04-29 07:30:53 51°16.588 2°49.721 -999 0.044369 0.232904 -1.10504
2009-04-29 07:30:58 51°16.603 2°49.707 -999 0.04478 0.235109 -1.10504
2009-04-29 07:31:03 51°16.617 2°49.694 -999 0.043442 0.227961 -1.10504
2009-04-29 07:31:09 51°16.636 2°49.679 -999 0.04406 0.231262 -1.070216
2009-04-29 07:31:13 51°16.648 2°49.668 -999 0.043648 0.229063 -1.070216
2009-04-29 07:31:18 51°16.663 2°49.656 -999 0.043648 0.229063 -1.070216
2009-04-29 07:31:23 51°16.678 2°49.642 -999 0.043545 0.228518 -1.10504
2009-04-29 07:31:28 51°16.692 2°49.629 -999 0.043854 0.230174 -1.10504
2009-04-29 07:31:33 51°16.707 2°49.616 -999 0.044266 0.232381 -1.10504
2009-04-29 07:31:39 51°16.725 2°49.6 -999 0.043339 0.227441 -1.10504
2009-04-29 07:31:43 51°16.737 2°49.59 -999 0.043854 0.230201 -1.070216
2009-04-29 07:31:48 51°16.752 2°49.577 -999 0.043854 0.230201 -1.070216
2009-04-29 07:31:53 51°16.766 2°49.564 -999 0.043957 0.230758 -1.10504
2009-04-29 07:31:58 51°16.781 2°49.55 -999 0.044163 0.231866 -1.10504
2009-04-29 07:32:04 51°16.798 2°49.535 -999 0.044986 0.236269 -1.070216
2009-04-29 07:32:08 51°16.81 2°49.524 -999 0.044986 0.236269 -1.10504
2009-04-29 07:32:13 51°16.824 2°49.511 -999 0.045501 0.239027 -1.10504
2009-04-29 07:32:19 51°16.841 2°49.495 -999 0.045501 0.239027 -1.10504
2009-04-29 07:32:23 51°16.853 2°49.485 -999 0.044677 0.234629 -1.10504
2009-04-29 07:32:29 51°16.87 2°49.469 -999 0.046221 0.242897 -1.10504
2009-04-29 07:32:33 51°16.881 2°49.458 -999 0.044883 0.235726 -1.10504
2009-04-29 07:32:39 51°16.898 2°49.442 -999 0.044266 0.232428 -1.10504
2009-04-29 07:32:44 51°16.913 2°49.428 -999 0.044163 0.23187 -1.070216
2009-04-29 07:32:48 51°16.924 2°49.416 -999 0.044163 0.23187 -1.070216
2009-04-29 07:32:53 51°16.938 2°49.402 -999 0.044266 0.232428 -1.10504
2009-04-29 07:32:58 51°16.952 2°49.387 -999 0.045089 0.236835 -1.10504
2009-04-29 07:33:04 51°16.97 2°49.371 -999 0.043648 0.229139 -1.070216
2009-04-29 07:33:09 51°16.984 2°49.356 -999 0.043648 0.229139 -1.10504
2009-04-29 07:33:13 51°16.995 2°49.345 -999 0.04478 0.235195 -1.10504
2009-04-29 07:33:18 51°17.01 2°49.331 -999 0.04478 0.235195 -1.10504
2009-04-29 07:33:23 51°17.024 2°49.316 -999 0.04406 0.231343 -1.070216
2009-04-29 07:33:29 51°17.042 2°49.3 -999 0.04406 0.231354 -1.070216
2009-04-29 07:33:33 51°17.054 2°49.288 -999 0.045089 0.236866 -1.070216
2009-04-29 07:33:38 51°17.068 2°49.274 -999 0.043957 0.230816 -1.070216
2009-04-29 07:33:43 51°17.082 2°49.26 -999 0.043648 0.22917 -1.070216
2009-04-29 07:33:48 51°17.097 2°49.246 -999 0.043648 0.22917 -1.070216
2009-04-29 07:33:53 51°17.112 2°49.232 -999 0.045192 0.237429 -1.10504
2009-04-29 07:33:59 51°17.129 2°49.215 -999 0.043031 0.225868 -1.10504
2009-04-29 07:34:03 51°17.14 2°49.203 -999 0.043648 0.229154 -1.10504
2009-04-29 07:34:08 51°17.155 2°49.189 -999 0.043545 0.228601 -1.10504
2009-04-29 07:34:13 51°17.169 2°49.175 -999 0.044163 0.231904 -1.070216
2009-04-29 07:34:19 51°17.187 2°49.159 -999 0.044163 0.231904 -1.070216
2009-04-29 07:34:24 51°17.202 2°49.145 -999 0.044574 0.234109 -1.10504
2009-04-29 07:34:28 51°17.213 2°49.134 -999 0.043545 0.228612 -1.070216
2009-04-29 07:34:33 51°17.228 2°49.12 -999 0.043442 0.228062 -1.10504
2009-04-29 07:34:39 51°17.245 2°49.104 -999 0.042825 0.224766 -1.10504
2009-04-29 07:34:43 51°17.257 2°49.093 -999 0.044163 0.231927 -1.10504
2009-04-29 07:34:49 51°17.274 2°49.076 -999 0.044163 0.231927 -1.10504
2009-04-29 07:34:53 51°17.286 2°49.065 -999 0.043339 0.227539 -1.10504
2009-04-29 07:34:58 51°17.3 2°49.051 -999 0.044369 0.233043 -1.070216
2009-04-29 07:35:04 51°17.318 2°49.035 -999 0.044471 0.233613 -1.070216
2009-04-29 07:35:08 51°17.329 2°49.023 -999 0.043648 0.229208 -1.10504
2009-04-29 07:35:13 51°17.344 2°49.01 -999 0.043648 0.229208 -1.070216
2009-04-29 07:35:18 51°17.359 2°48.996 -999 0.043648 0.229208 -1.070216
2009-04-29 07:35:24 51°17.376 2°48.98 -999 0.044369 0.233059 -1.10504
2009-04-29 07:35:29 51°17.391 2°48.966 -999 0.044163 0.231962 -1.070216
2009-04-29 07:35:33 51°17.403 2°48.955 -999 0.043648 0.229211 -1.10504
2009-04-29 07:35:39 51°17.421 2°48.939 -999 0.043339 0.227566 -1.10504
2009-04-29 07:35:43 51°17.432 2°48.928 -999 0.043957 0.230865 -1.070216
2009-04-29 07:35:49 51°17.45 2°48.911 -999 0.043957 0.230865 -1.070216
2009-04-29 07:35:53 51°17.462 2°48.901 -999 0.043442 0.228119 -1.070216
2009-04-29 07:35:58 51°17.476 2°48.887 -999 0.043237 0.227023 -1.070216
2009-04-29 07:36:03 51°17.491 2°48.873 -999 0.044574 0.234183 -1.070216
2009-04-29 07:36:08 51°17.506 2°48.86 -999 0.042619 0.223723 -1.070216
2009-04-29 07:36:13 51°17.52 2°48.846 -999 0.045089 0.236937 -1.070216
2009-04-29 07:36:19 51°17.538 2°48.829 -999 0.045089 0.236937 -1.070216
2009-04-29 07:36:24 51°17.553 2°48.816 -999 0.04231 0.222082 -1.10504
2009-04-29 07:36:28 51°17.565 2°48.805 -999 0.045089 0.236949 -1.10504
2009-04-29 07:36:33 51°17.579 2°48.792 -999 0.043134 0.226504 -1.070216
2009-04-29 07:36:39 51°17.597 2°48.777 -999 0.043442 0.228164 -1.070216
2009-04-29 07:36:43 51°17.609 2°48.766 -999 0.043545 0.228726 -1.070216
2009-04-29 07:36:49 51°17.626 2°48.749 -999 0.043545 0.228726 -1.070216
2009-04-29 07:36:53 51°17.638 2°48.739 -999 0.043648 0.229276 -1.10504
2009-04-29 07:36:59 51°17.656 2°48.722 -999 0.042619 0.22376 -1.070216
2009-04-29 07:37:04 51°17.67 2°48.709 -999 0.042516 0.223192 -1.10504
2009-04-29 07:37:08 51°17.682 2°48.698 -999 0.042928 0.225378 -1.070216
2009-04-29 07:37:13 51°17.696 2°48.683 -999 0.042105 0.220981 -1.070216
2009-04-29 07:37:19 51°17.713 2°48.666 -999 0.042105 0.220981 -1.070216
2009-04-29 07:37:24 51°17.728 2°48.652 -999 0.042619 0.22373 -1.070216
2009-04-29 07:37:29 51°17.742 2°48.637 -999 0.043854 0.230342 -1.070216
2009-04-29 07:37:33 51°17.754 2°48.626 -999 0.042207 0.221559 -1.070216
2009-04-29 07:37:38 51°17.768 2°48.612 -999 0.043134 0.226522 -1.10504
2009-04-29 07:37:43 51°17.783 2°48.597 -999 0.04231 0.22213 -1.070216
2009-04-29 07:37:49 51°17.8 2°48.58 -999 0.04231 0.22213 -1.070216
2009-04-29 07:37:53 51°17.811 2°48.568 -999 0.043031 0.22598 -1.10504
2009-04-29 07:37:58 51°17.826 2°48.553 -999 0.043237 0.227083 -1.10504
2009-04-29 07:38:03 51°17.84 2°48.539 -999 0.042825 0.224885 -1.10504
2009-04-29 07:38:09 51°17.858 2°48.521 -999 0.043134 0.226534 -1.10504
2009-04-29 07:38:13 51°17.87 2°48.51 -999 0.043854 0.230395 -1.070216
2009-04-29 07:38:18 51°17.884 2°48.496 -999 0.043854 0.230395 -1.070216
2009-04-29 07:38:24 51°17.902 2°48.479 -999 0.042516 0.223247 -1.10504
2009-04-29 07:38:29 51°17.916 2°48.464 -999 0.042002 0.220497 -1.10504
2009-04-29 07:38:33 51°17.928 2°48.453 -999 0.042928 0.225442 -1.070216
2009-04-29 07:38:39 51°17.946 2°48.436 -999 0.042722 0.224342 -1.070216
2009-04-29 07:38:43 51°17.958 2°48.424 -999 0.042207 0.221596 -1.070216
2009-04-29 07:38:48 51°17.972 2°48.41 -999 0.042207 0.221596 -1.070216
2009-04-29 07:38:53 51°17.987 2°48.395 -999 0.042105 0.221043 -1.070216
2009-04-29 07:38:58 51°18.002 2°48.381 -999 0.043339 0.227652 -1.070216
2009-04-29 07:39:04 51°18.019 2°48.364 -999 0.042928 0.225471 -1.070216
2009-04-29 07:39:08 51°18.032 2°48.354 -999 0.043339 0.227679 -1.070216
2009-04-29 07:39:13 51°18.047 2°48.34 -999 0.042928 0.225483 -1.070216
2009-04-29 07:39:19 51°18.064 2°48.322 -999 0.042928 0.225483 -1.070216
2009-04-29 07:39:23 51°18.076 2°48.31 -999 0.042002 0.22053 -1.070216
2009-04-29 07:39:29 51°18.093 2°48.292 -999 0.043134 0.226579 -1.070216
2009-04-29 07:39:33 51°18.105 2°48.281 -999 0.043031 0.226036 -1.070216
2009-04-29 07:39:38 51°18.119 2°48.266 -999 0.042825 0.224937 -1.070216
2009-04-29 07:39:43 51°18.134 2°48.251 -999 0.042002 0.220548 -1.070216
2009-04-29 07:39:49 51°18.152 2°48.234 -999 0.042002 0.220548 -1.070216
2009-04-29 07:39:53 51°18.163 2°48.222 -999 0.043339 0.227697 -1.070216
2009-04-29 07:39:58 51°18.178 2°48.208 -999 0.042105 0.221098 -1.10504
2009-04-29 07:40:03 51°18.194 2°48.195 -999 0.042516 0.223288 -1.070216
2009-04-29 07:40:09 51°18.212 2°48.179 -999 0.042619 0.223834 -1.070216
2009-04-29 07:40:13 51°18.224 2°48.167 -999 0.042413 0.222738 -1.070216
2009-04-29 07:40:18 51°18.239 2°48.153 -999 0.042413 0.222738 -1.070216
2009-04-29 07:40:23 51°18.254 2°48.138 -999 0.042825 0.22494 -1.070216
2009-04-29 07:40:29 51°18.271 2°48.121 -999 0.042722 0.224398 -1.070216
2009-04-29 07:40:33 51°18.283 2°48.109 -999 0.042002 0.220563 -1.10504
2009-04-29 07:40:38 51°18.298 2°48.095 -999 0.042722 0.224428 -1.070216
2009-04-29 07:40:43 51°18.313 2°48.08 -999 0.042207 0.221684 -1.070216
2009-04-29 07:40:49 51°18.331 2°48.063 -999 0.042207 0.221684 -1.070216
2009-04-29 07:40:53 51°18.342 2°48.051 -999 0.041796 0.21949 -1.070216
2009-04-29 07:40:59 51°18.36 2°48.033 -999 0.042002 0.220581 -1.070216
2009-04-29 07:41:03 51°18.372 2°48.022 -999 0.042002 0.220581 -1.070216
2009-04-29 07:41:08 51°18.387 2°48.007 -999 0.042928 0.225535 -1.070216
2009-04-29 07:41:13 51°18.401 2°47.992 -999 0.042105 0.221138 -1.070216
2009-04-29 07:41:18 51°18.416 2°47.978 -999 0.042105 0.221138 -1.070216
2009-04-29 07:41:24 51°18.433 2°47.96 -999 0.04231 0.222237 -1.10504
2009-04-29 07:41:28 51°18.445 2°47.949 -999 0.042207 0.22168 -1.10504
2009-04-29 07:41:33 51°18.459 2°47.934 -999 0.042722 0.224432 -1.10504
2009-04-29 07:41:38 51°18.474 2°47.92 -999 0.040355 0.211792 -1.10504
2009-04-29 07:41:43 51°18.49 2°47.908 -999 0.043134 0.226624 -1.10504
2009-04-29 07:41:49 51°18.508 2°47.893 -999 0.043134 0.226624 -1.10504
2009-04-29 07:41:53 51°18.52 2°47.883 -999 0.04087 0.214533 -1.10504
2009-04-29 07:41:59 51°18.538 2°47.867 -999 0.042002 0.220581 -1.070216
2009-04-29 07:42:04 51°18.553 2°47.854 -999 0.041281 0.216738 -1.10504
2009-04-29 07:42:09 51°18.568 2°47.841 -999 0.040561 0.212899 -1.070216
2009-04-29 07:42:13 51°18.58 2°47.832 -999 0.041281 0.216745 -1.070216
2009-04-29 07:42:18 51°18.595 2°47.82 -999 0.041281 0.216745 -1.070216
2009-04-29 07:42:24 51°18.614 2°47.807 -999 0.041281 0.216756 -1.10504
2009-04-29 07:42:29 51°18.629 2°47.795 -999 0.041281 0.216767 -1.070216
2009-04-29 07:42:33 51°18.642 2°47.785 -999 0.040973 0.215124 -1.070216
2009-04-29 07:42:38 51°18.656 2°47.772 -999 0.04087 0.214579 -1.10504
2009-04-29 07:42:43 51°18.672 2°47.76 -999 0.040767 0.214027 -1.070216
2009-04-29 07:42:49 51°18.689 2°47.744 -999 0.040767 0.214027 -1.070216
2009-04-29 07:42:53 51°18.701 2°47.733 -999 0.040149 0.210734 -1.070216
2009-04-29 07:42:59 51°18.719 2°47.717 -999 0.040561 0.212927 -1.070216
2009-04-29 07:43:03 51°18.731 2°47.707 -999 0.04087 0.214579 -1.070216
2009-04-29 07:43:08 51°18.746 2°47.694 -999 0.040149 0.210741 -1.10504
2009-04-29 07:43:13 51°18.761 2°47.681 -999 0.040561 0.212934 -1.070216
2009-04-29 07:43:18 51°18.775 2°47.667 -999 0.040561 0.212934 -1.070216
2009-04-29 07:43:24 51°18.793 2°47.652 -999 0.039944 0.209645 -1.070216
2009-04-29 07:43:28 51°18.805 2°47.641 -999 0.041178 0.216232 -1.070216
2009-04-29 07:43:33 51°18.82 2°47.629 -999 0.040458 0.212396 -1.070216
2009-04-29 07:43:39 51°18.838 2°47.614 -999 0.040561 0.212944 -1.070216
2009-04-29 07:43:43 51°18.851 2°47.605 -999 0.040973 0.215142 -1.070216
2009-04-29 07:43:49 51°18.869 2°47.59 -999 0.040973 0.215142 -1.070216
2009-04-29 07:43:53 51°18.881 2°47.58 -999 0.041178 0.21625 -1.070216
2009-04-29 07:43:59 51°18.9 2°47.565 -999 0.04087 0.214611 -1.070216
2009-04-29 07:44:04 51°18.915 2°47.552 -999 0.040664 0.213517 -1.070216
2009-04-29 07:44:08 51°18.927 2°47.542 -999 0.039841 0.209132 -1.070216
2009-04-29 07:44:13 51°18.942 2°47.528 -999 0.040767 0.214066 -1.070216
2009-04-29 07:44:18 51°18.957 2°47.515 -999 0.040767 0.214066 -1.070216
2009-04-29 07:44:24 51°18.975 2°47.5 -999 0.041384 0.217366 -1.10504
2009-04-29 07:44:29 51°18.991 2°47.488 -999 0.040664 0.213531 -1.070216
2009-04-29 07:44:33 51°19.003 2°47.478 -999 0.041899 0.220123 -1.10504
2009-04-29 07:44:38 51°19.018 2°47.465 -999 0.04087 0.214646 -1.070216
2009-04-29 07:44:44 51°19.036 2°47.449 -999 0.040664 0.213539 -1.070216
2009-04-29 07:44:49 51°19.05 2°47.436 -999 0.040664 0.213539 -1.070216
2009-04-29 07:44:53 51°19.062 2°47.425 -999 0.04159 0.218475 -1.070216
2009-04-29 07:44:58 51°19.077 2°47.412 -999 0.041487 0.217929 -1.070216
2009-04-29 07:45:03 51°19.092 2°47.399 -999 0.040561 0.212993 -1.10504
2009-04-29 07:45:09 51°19.109 2°47.383 -999 0.041384 0.217391 -1.070216
2009-04-29 07:45:13 51°19.121 2°47.373 -999 0.040252 0.211348 -1.070216
2009-04-29 07:45:18 51°19.136 2°47.359 -999 0.040252 0.211348 -1.070216
2009-04-29 07:45:24 51°19.154 2°47.344 -999 0.040561 0.212993 -1.070216
2009-04-29 07:45:28 51°19.166 2°47.334 -999 0.040561 0.212993 -1.070216
2009-04-29 07:45:33 51°19.181 2°47.321 -999 0.040561 0.212997 -1.070216
2009-04-29 07:45:39 51°19.199 2°47.306 -999 0.040664 0.213549 -1.070216
2009-04-29 07:45:43 51°19.211 2°47.296 -999 0.040664 0.213556 -1.070216
2009-04-29 07:45:48 51°19.226 2°47.284 -999 0.040664 0.213556 -1.070216
2009-04-29 07:45:53 51°19.242 2°47.273 -999 0.040767 0.214108 -1.070216
2009-04-29 07:45:59 51°19.26 2°47.258 -999 0.040252 0.211373 -1.070216
2009-04-29 07:46:04 51°19.276 2°47.246 -999 0.040458 0.212473 -1.070216
2009-04-29 07:46:08 51°19.288 2°47.236 -999 0.040355 0.211928 -1.070216
2009-04-29 07:46:13 51°19.303 2°47.223 -999 0.041899 0.220178 -1.070216
2009-04-29 07:46:18 51°19.318 2°47.211 -999 0.041899 0.220178 -1.070216
2009-04-29 07:46:23 51°19.333 2°47.198 -999 0.040973 0.215241 -1.070216
2009-04-29 07:46:29 51°19.351 2°47.182 -999 0.041487 0.217983 -1.070216
2009-04-29 07:46:33 51°19.363 2°47.172 -999 0.040458 0.212491 -1.070216
2009-04-29 07:46:38 51°19.378 2°47.16 -999 0.040355 0.211935 -1.10504
2009-04-29 07:46:44 51°19.396 2°47.145 -999 0.040149 0.210835 -1.070216
2009-04-29 07:46:49 51°19.411 2°47.132 -999 0.040149 0.210835 -1.070216
2009-04-29 07:46:53 51°19.423 2°47.121 -999 0.04159 0.218522 -1.10504
2009-04-29 07:46:58 51°19.438 2°47.109 -999 0.04087 0.214685 -1.070216
2009-04-29 07:47:03 51°19.453 2°47.096 -999 0.040252 0.211394 -1.070216
2009-04-29 07:47:09 51°19.471 2°47.08 -999 0.040458 0.212498 -1.10504
2009-04-29 07:47:13 51°19.483 2°47.07 -999 0.040561 0.21305 -1.070216
2009-04-29 07:47:18 51°19.498 2°47.056 -999 0.040561 0.21305 -1.070216
2009-04-29 07:47:24 51°19.516 2°47.04 -999 0.040046 0.210314 -1.10504
2009-04-29 07:47:28 51°19.528 2°47.029 -999 0.040355 0.211967 -1.10504
2009-04-29 07:47:33 51°19.543 2°47.016 -999 0.04087 0.214721 -1.070216
2009-04-29 07:47:39 51°19.561 2°47.001 -999 0.041076 0.215819 -1.070216
2009-04-29 07:47:43 51°19.573 2°46.99 -999 0.040046 0.210335 -1.070216
2009-04-29 07:47:48 51°19.588 2°46.977 -999 0.040046 0.210335 -1.070216
2009-04-29 07:47:53 51°19.603 2°46.964 -999 0.040561 0.213071 -1.070216
2009-04-29 07:47:58 51°19.618 2°46.951 -999 0.040252 0.211422 -1.070216
2009-04-29 07:48:04 51°19.636 2°46.936 -999 0.040355 0.211963 -1.070216
2009-04-29 07:48:08 51°19.648 2°46.926 -999 0.040664 0.213613 -1.070216
2009-04-29 07:48:13 51°19.663 2°46.914 -999 0.041076 0.215812 -1.070216
2009-04-29 07:48:19 51°19.681 2°46.899 -999 0.041076 0.215812 -1.070216
2009-04-29 07:48:23 51°19.694 2°46.889 -999 0.040767 0.214172 -1.070216
2009-04-29 07:48:29 51°19.712 2°46.875 -999 0.040973 0.215277 -1.070216
2009-04-29 07:48:33 51°19.724 2°46.865 -999 0.04159 0.218583 -1.070216
2009-04-29 07:48:38 51°19.739 2°46.853 -999 0.040252 0.211442 -1.10504
2009-04-29 07:48:44 51°19.757 2°46.838 -999 0.041693 0.219129 -1.070216
2009-04-29 07:48:48 51°19.769 2°46.829 -999 0.041693 0.219129 -1.070216
2009-04-29 07:48:53 51°19.784 2°46.817 -999 0.041076 0.215844 -1.070216
2009-04-29 07:48:58 51°19.799 2°46.805 -999 0.040149 0.210897 -1.070216
2009-04-29 07:49:04 51°19.817 2°46.789 -999 0.041076 0.215844 -1.070216
2009-04-29 07:49:09 51°19.831 2°46.777 -999 0.040767 0.214193 -1.070216
2009-04-29 07:49:13 51°19.843 2°46.767 -999 0.040767 0.214197 -1.10504
2009-04-29 07:49:18 51°19.858 2°46.755 -999 0.040767 0.214197 -1.10504
2009-04-29 07:49:23 51°19.872 2°46.742 -999 0.040355 0.212002 -1.070216
2009-04-29 07:49:29 51°19.89 2°46.728 -999 0.040252 0.211456 -1.10504
2009-04-29 07:49:33 51°19.902 2°46.718 -999 0.041178 0.216404 -1.070216
2009-04-29 07:49:39 51°19.92 2°46.704 -999 0.040664 0.213662 -1.070216
2009-04-29 07:49:43 51°19.932 2°46.694 -999 0.040458 0.212564 -1.070216
2009-04-29 07:49:49 51°19.949 2°46.68 -999 0.040458 0.212564 -1.070216
2009-04-29 07:49:53 51°19.961 2°46.67 -999 0.040664 0.213665 -1.070216
2009-04-29 07:49:58 51°19.976 2°46.658 -999 0.040355 0.212019 -1.070216
2009-04-29 07:50:04 51°19.994 2°46.643 -999 0.040252 0.21147 -1.10504
2009-04-29 07:50:08 51°20.006 2°46.633 -999 0.041281 0.216971 -1.070216
2009-04-29 07:50:13 51°20.021 2°46.621 -999 0.041178 0.21644 -1.070216
2009-04-29 07:50:19 51°20.039 2°46.605 -999 0.041178 0.21644 -1.070216
2009-04-29 07:50:23 51°20.05 2°46.596 -999 0.040252 0.211491 -1.070216
2009-04-29 07:50:29 51°20.068 2°46.58 -999 0.040973 0.215337 -1.070216
2009-04-29 07:50:33 51°20.08 2°46.57 -999 0.042002 0.220833 -1.070216
2009-04-29 07:50:39 51°20.098 2°46.555 -999 0.041076 0.215887 -1.070216
2009-04-29 07:50:44 51°20.113 2°46.542 -999 0.040973 0.215334 -1.070216
2009-04-29 07:50:48 51°20.125 2°46.532 -999 0.040973 0.215334 -1.070216
2009-04-29 07:50:53 51°20.14 2°46.519 -999 0.039944 0.209842 -1.070216
2009-04-29 07:50:58 51°20.155 2°46.505 -999 0.042207 0.22193 -1.070216
2009-04-29 07:51:04 51°20.172 2°46.489 -999 0.040355 0.212043 -1.070216
2009-04-29 07:51:09 51°20.187 2°46.476 -999 0.040458 0.212592 -1.070216
2009-04-29 07:51:13 51°20.199 2°46.465 -999 0.040767 0.214243 -1.10504
2009-04-29 07:51:18 51°20.214 2°46.451 -999 0.040767 0.214243 -1.10504
2009-04-29 07:51:23 51°20.229 2°46.438 -999 0.040973 0.215348 -1.10504
2009-04-29 07:51:29 51°20.246 2°46.422 -999 0.041076 0.215904 -1.070216
2009-04-29 07:51:33 51°20.258 2°46.411 -999 0.041281 0.217021 -1.070216
2009-04-29 07:51:38 51°20.273 2°46.397 -999 0.04087 0.214824 -1.070216
2009-04-29 07:51:43 51°20.288 2°46.383 -999 0.040458 0.212624 -1.070216
2009-04-29 07:51:49 51°20.307 2°46.367 -999 0.040458 0.212624 -1.070216
2009-04-29 07:51:53 51°20.319 2°46.356 -999 0.04087 0.214824 -1.070216
2009-04-29 07:51:58 51°20.334 2°46.343 -999 0.040561 0.213176 -1.070216
2009-04-29 07:52:04 51°20.352 2°46.327 -999 0.040561 0.213173 -1.070216
2009-04-29 07:52:08 51°20.364 2°46.316 -999 0.040046 0.210422 -1.070216
2009-04-29 07:52:13 51°20.379 2°46.303 -999 0.040664 0.213715 -1.070216
2009-04-29 07:52:19 51°20.397 2°46.287 -999 0.040664 0.213715 -1.070216
2009-04-29 07:52:23 51°20.409 2°46.277 -999 0.040973 0.215369 -1.070216
2009-04-29 07:52:28 51°20.425 2°46.263 -999 0.040046 0.210429 -1.070216
2009-04-29 07:52:33 51°20.44 2°46.249 -999 0.040561 0.213173 -1.070216
2009-04-29 07:52:39 51°20.458 2°46.233 -999 0.040252 0.21153 -1.070216
2009-04-29 07:52:44 51°20.473 2°46.22 -999 0.040252 0.211533 -1.070216
2009-04-29 07:52:48 51°20.485 2°46.209 -999 0.040252 0.211533 -1.070216
2009-04-29 07:52:53 51°20.5 2°46.196 -999 0.040458 0.212638 -1.070216
2009-04-29 07:52:59 51°20.518 2°46.18 -999 0.040252 0.211551 -1.070216
2009-04-29 07:53:03 51°20.53 2°46.169 -999 0.040149 0.211002 -1.10504
2009-04-29 07:53:09 51°20.549 2°46.152 -999 0.040046 0.21045 -1.10504
2009-04-29 07:53:13 51°20.561 2°46.142 -999 0.040458 0.212648 -1.10504
2009-04-29 07:53:18 51°20.576 2°46.128 -999 0.040458 0.212648 -1.10504
2009-04-29 07:53:24 51°20.594 2°46.112 -999 0.040458 0.212648 -1.070216
2009-04-29 07:53:29 51°20.609 2°46.098 -999 0.041796 0.219806 -1.070216
2009-04-29 07:53:33 51°20.621 2°46.088 -999 0.040561 0.213215 -1.070216
2009-04-29 07:53:39 51°20.639 2°46.07 -999 0.040767 0.214317 -1.070216
2009-04-29 07:53:44 51°20.653 2°46.055 -999 0.041076 0.215965 -1.070216
2009-04-29 07:53:49 51°20.667 2°46.04 -999 0.041076 0.215965 -1.070216
2009-04-29 07:53:53 51°20.679 2°46.028 -999 0.040355 0.212117 -1.10504
2009-04-29 07:53:59 51°20.696 2°46.008 -999 0.040767 0.214313 -1.070216
2009-04-29 07:54:03 51°20.707 2°45.995 -999 0.040046 0.210477 -1.070216
2009-04-29 07:54:09 51°20.724 2°45.975 -999 0.040973 0.215419 -1.070216
2009-04-29 07:54:13 51°20.734 2°45.961 -999 0.040664 0.213778 -1.070216
2009-04-29 07:54:18 51°20.748 2°45.944 -999 0.040664 0.213778 -1.070216
2009-04-29 07:54:24 51°20.763 2°45.922 -999 0.040664 0.213782 -1.070216
2009-04-29 07:54:29 51°20.776 2°45.903 -999 0.040149 0.21104 -1.070216
2009-04-29 07:54:33 51°20.787 2°45.888 -999 0.040355 0.212142 -1.070216
2009-04-29 07:54:39 51°20.802 2°45.865 -999 0.039841 0.209408 -1.070216
2009-04-29 07:54:43 51°20.812 2°45.849 -999 0.041281 0.217097 -1.070216
2009-04-29 07:54:48 51°20.824 2°45.829 -999 0.041281 0.217097 -1.070216
2009-04-29 07:54:53 51°20.837 2°45.81 -999 0.040046 0.210512 -1.070216
2009-04-29 07:54:59 51°20.851 2°45.786 -999 0.040355 0.212145 -1.070216
2009-04-29 07:55:04 51°20.863 2°45.766 -999 0.039841 0.209397 -1.070216
2009-04-29 07:55:08 51°20.874 2°45.751 -999 0.040664 0.213789 -1.070216
2009-04-29 07:55:13 51°20.886 2°45.732 -999 0.040561 0.213236 -1.10504
2009-04-29 07:55:19 51°20.901 2°45.709 -999 0.040561 0.213236 -1.10504
2009-04-29 07:55:23 51°20.912 2°45.693 -999 0.040252 0.211589 -1.070216
2009-04-29 07:55:29 51°20.927 2°45.67 -999 0.040664 0.213793 -1.070216
2009-04-29 07:55:33 51°20.937 2°45.655 -999 0.040149 0.211051 -1.070216
2009-04-29 07:55:38 51°20.949 2°45.635 -999 0.040252 0.2116 -1.070216
2009-04-29 07:55:44 51°20.965 2°45.612 -999 0.040458 0.212705 -1.070216
2009-04-29 07:55:49 51°20.977 2°45.593 -999 0.040458 0.212705 -1.070216
2009-04-29 07:55:53 51°20.987 2°45.577 -999 0.040252 0.21161 -1.070216
2009-04-29 07:55:58 51°20.999 2°45.557 -999 0.040046 0.210512 -1.070216
2009-04-29 07:56:04 51°21.014 2°45.533 -999 0.040458 0.212712 -1.070216
2009-04-29 07:56:09 51°21.026 2°45.514 -999 0.039429 0.207224 -1.070216
2009-04-29 07:56:13 51°21.036 2°45.498 -999 0.039429 0.207224 -1.070216
2009-04-29 07:56:18 51°21.048 2°45.478 -999 0.039429 0.207224 -1.070216
2009-04-29 07:56:24 51°21.063 2°45.455 -999 0.039944 0.20997 -1.070216
2009-04-29 07:56:29 51°21.076 2°45.435 -999 0.040355 0.212173 -1.070216
2009-04-29 07:56:33 51°21.086 2°45.42 -999 0.039738 0.20888 -1.070216
2009-04-29 07:56:39 51°21.101 2°45.397 -999 0.040149 0.211082 -1.070216
2009-04-29 07:56:43 51°21.111 2°45.382 -999 0.039944 0.209988 -1.070216
2009-04-29 07:56:48 51°21.124 2°45.363 -999 0.039944 0.209988 -1.070216
2009-04-29 07:56:53 51°21.137 2°45.344 -999 0.039944 0.209984 -1.070216
2009-04-29 07:56:58 51°21.149 2°45.325 -999 0.040458 0.212733 -1.070216
2009-04-29 07:57:04 51°21.165 2°45.303 -999 0.039326 0.206692 -1.070216
2009-04-29 07:57:08 51°21.175 2°45.289 -999 0.040664 0.213838 -1.10504
2009-04-29 07:57:13 51°21.188 2°45.271 -999 0.039944 0.209991 -1.070216
2009-04-29 07:57:19 51°21.203 2°45.249 -999 0.039944 0.209991 -1.070216
2009-04-29 07:57:23 51°21.213 2°45.235 -999 0.039532 0.207796 -1.070216
2009-04-29 07:57:29 51°21.229 2°45.215 -999 0.040767 0.214399 -1.070216
2009-04-29 07:57:33 51°21.24 2°45.201 -999 0.039944 0.209998 -1.070216
2009-04-29 07:57:39 51°21.255 2°45.181 -999 0.039841 0.209449 -1.070216
2009-04-29 07:57:44 51°21.27 2°45.167 -999 0.04087 0.214941 -1.070216
2009-04-29 07:57:48 51°21.28 2°45.154 -999 0.04087 0.214941 -1.070216
2009-04-29 07:57:53 51°21.295 2°45.141 -999 0.040458 0.212754 -1.070216
2009-04-29 07:57:58 51°21.309 2°45.127 -999 0.041693 0.219372 -1.070216
2009-04-29 07:58:04 51°21.326 2°45.112 -999 0.043237 0.227661 -1.070216
2009-04-29 07:58:09 51°21.341 2°45.099 -999 0.043442 0.228782 -1.070216
2009-04-29 07:58:13 51°21.352 2°45.089 -999 0.042825 0.225486 -1.070216
2009-04-29 07:58:18 51°21.367 2°45.077 -999 0.042825 0.225486 -1.070216
2009-04-29 07:58:23 51°21.382 2°45.065 -999 0.04406 0.232105 -1.070216
2009-04-29 07:58:29 51°21.399 2°45.051 -999 0.043031 0.226599 -1.10504
2009-04-29 07:58:33 51°21.411 2°45.041 -999 0.043854 0.230993 -1.070216
2009-04-29 07:58:39 51°21.429 2°45.027 -999 0.043339 0.228223 -1.070216
2009-04-29 07:58:43 51°21.441 2°45.018 -999 0.042722 0.224897 -1.070216
2009-04-29 07:58:49 51°21.459 2°45.004 -999 0.042722 0.224897 -1.070216
2009-04-29 07:58:53 51°21.47 2°44.994 -999 0.043339 0.228197 -1.070216
2009-04-29 07:58:58 51°21.485 2°44.983 -999 0.043545 0.229292 -1.070216
2009-04-29 07:59:04 51°21.503 2°44.969 -999 0.042722 0.224878 -1.070216
2009-04-29 07:59:08 51°21.515 2°44.959 -999 0.043237 0.227638 -1.070216
2009-04-29 07:59:13 51°21.53 2°44.948 -999 0.043957 0.231503 -1.070216
2009-04-29 07:59:19 51°21.548 2°44.935 -999 0.043957 0.231503 -1.070216
2009-04-29 07:59:23 51°21.56 2°44.925 -999 0.04478 0.235974 -1.070216
2009-04-29 07:59:29 51°21.579 2°44.912 -999 0.044266 0.23324 -1.070216
2009-04-29 07:59:33 51°21.591 2°44.903 -999 0.043339 0.228276 -1.070216
2009-04-29 07:59:39 51°21.609 2°44.889 -999 0.04231 0.222779 -1.070216
2009-04-29 07:59:44 51°21.624 2°44.876 -999 0.044574 0.234944 -1.070216
2009-04-29 07:59:48 51°21.636 2°44.866 -999 0.044574 0.234944 -1.070216
2009-04-29 07:59:53 51°21.651 2°44.854 -999 0.043339 0.228292 -1.070216
2009-04-29 07:59:59 51°21.669 2°44.839 -999 0.042722 0.224938 -1.070216
2009-04-29 08:00:04 51°21.684 2°44.827 -999 0.042619 0.224368 -1.070216
2009-04-29 08:00:09 51°21.699 2°44.815 -999 0.043134 0.227113 -1.070216
2009-04-29 08:00:13 51°21.711 2°44.805 -999 0.044266 0.233201 -1.070216
2009-04-29 08:00:18 51°21.726 2°44.794 -999 0.044266 0.233201 -1.070216
2009-04-29 08:00:24 51°21.744 2°44.78 -999 0.043134 0.227154 -1.070216
2009-04-29 08:00:29 51°21.759 2°44.768 -999 0.042722 0.224968 -1.070216
2009-04-29 08:00:33 51°21.771 2°44.758 -999 0.044163 0.232723 -1.070216
2009-04-29 08:00:38 51°21.786 2°44.747 -999 0.042722 0.225017 -1.070216
2009-04-29 08:00:43 51°21.802 2°44.735 -999 0.042413 0.223341 -1.070216
2009-04-29 08:00:49 51°21.821 2°44.72 -999 0.042413 0.223341 -1.070216
2009-04-29 08:00:53 51°21.833 2°44.711 -999 0.043442 0.228847 -1.070216
2009-04-29 08:00:58 51°21.848 2°44.699 -999 0.042722 0.224998 -1.070216
2009-04-29 08:01:04 51°21.866 2°44.685 -999 0.042516 0.223899 -1.070216
2009-04-29 08:01:09 51°21.881 2°44.673 -999 0.04231 0.222793 -1.070216
2009-04-29 08:01:13 51°21.894 2°44.663 -999 0.043339 0.228318 -1.070216
2009-04-29 08:01:19 51°21.912 2°44.648 -999 0.043339 0.228318 -1.070216
2009-04-29 08:01:23 51°21.924 2°44.638 -999 0.043442 0.2289 -1.070216
2009-04-29 08:01:28 51°21.939 2°44.626 -999 0.043237 0.227801 -1.070216
2009-04-29 08:01:33 51°21.954 2°44.614 -999 0.043648 0.230004 -1.070216
2009-04-29 08:01:39 51°21.972 2°44.6 -999 0.043134 0.227268 -1.070216
2009-04-29 08:01:44 51°21.987 2°44.588 -999 0.044266 0.233388 -1.070216
2009-04-29 08:01:48 51°21.999 2°44.578 -999 0.044266 0.233388 -1.070216
2009-04-29 08:01:53 51°22.014 2°44.566 -999 0.043031 0.226758 -1.070216
2009-04-29 08:01:59 51°22.033 2°44.551 -999 0.042825 0.225658 -1.070216
2009-04-29 08:02:03 51°22.045 2°44.542 -999 0.04231 0.222897 -1.070216
2009-04-29 08:02:09 51°22.063 2°44.527 -999 0.042208 0.222327 -1.070216
2009-04-29 08:02:13 51°22.075 2°44.518 -999 0.042722 0.225073 -1.070216
2009-04-29 08:02:19 51°22.093 2°44.503 -999 0.042722 0.225073 -1.070216
2009-04-29 08:02:24 51°22.109 2°44.491 -999 0.04406 0.232267 -1.070216
2009-04-29 08:02:29 51°22.124 2°44.479 -999 0.043237 0.227873 -1.070216
2009-04-29 08:02:33 51°22.136 2°44.47 -999 0.042208 0.222372 -1.070216
2009-04-29 08:02:38 51°22.152 2°44.458 -999 0.043031 0.226822 -1.070216
2009-04-29 08:02:44 51°22.17 2°44.444 -999 0.04231 0.222964 -1.070216
2009-04-29 08:02:49 51°22.185 2°44.432 -999 0.04231 0.222964 -1.070216
2009-04-29 08:02:53 51°22.198 2°44.422 -999 0.042002 0.221328 -1.070216
2009-04-29 08:02:58 51°22.213 2°44.41 -999 0.043648 0.230169 -1.070216
2009-04-29 08:03:04 51°22.231 2°44.395 -999 0.042825 0.225756 -1.070216
2009-04-29 08:03:09 51°22.246 2°44.383 -999 0.043339 0.228497 -1.070216
2009-04-29 08:03:13 51°22.259 2°44.374 -999 0.043134 0.227378 -1.070216
2009-04-29 08:03:19 51°22.277 2°44.359 -999 0.043134 0.227378 -1.070216
2009-04-29 08:03:23 51°22.289 2°44.349 -999 0.043545 0.229575 -1.070216
2009-04-29 08:03:29 51°22.307 2°44.334 -999 0.043237 0.227937 -1.070216
2009-04-29 08:03:33 51°22.319 2°44.324 -999 0.042105 0.221865 -1.070216
2009-04-29 08:03:38 51°22.334 2°44.312 -999 0.041796 0.220197 -1.070216
2009-04-29 08:03:44 51°22.353 2°44.298 -999 0.043442 0.229022 -1.070216
2009-04-29 08:03:48 51°22.365 2°44.289 -999 0.043442 0.229022 -1.070216
2009-04-29 08:03:53 51°22.38 2°44.277 -999 0.043957 0.231823 -1.10504
2009-04-29 08:03:59 51°22.398 2°44.263 -999 0.042825 0.225771 -1.070216
2009-04-29 08:04:03 51°22.411 2°44.253 -999 0.043134 0.227446 -1.070216
2009-04-29 08:04:09 51°22.429 2°44.238 -999 0.042105 0.221924 -1.070216
2009-04-29 08:04:13 51°22.441 2°44.228 -999 0.041693 0.219711 -1.070216
2009-04-29 08:04:19 51°22.459 2°44.213 -999 0.041693 0.219711 -1.070216
2009-04-29 08:04:24 51°22.474 2°44.2 -999 0.042516 0.224104 -1.070216
2009-04-29 08:04:28 51°22.486 2°44.19 -999 0.04159 0.219146 -1.070216
2009-04-29 08:04:33 51°22.501 2°44.178 -999 0.042928 0.226323 -1.070216
2009-04-29 08:04:38 51°22.516 2°44.166 -999 0.042105 0.221931 -1.070216
2009-04-29 08:04:44 51°22.535 2°44.152 -999 0.04231 0.223049 -1.070216
2009-04-29 08:04:49 51°22.55 2°44.141 -999 0.04231 0.223049 -1.070216
2009-04-29 08:04:53 51°22.562 2°44.131 -999 0.04159 0.219193 -1.070216
2009-04-29 08:04:58 51°22.577 2°44.119 -999 0.041693 0.219751 -1.070216
2009-04-29 08:05:04 51°22.595 2°44.105 -999 0.042002 0.221416 -1.070216
2009-04-29 08:05:09 51°22.611 2°44.092 -999 0.042619 0.224753 -1.070216
2009-04-29 08:05:13 51°22.623 2°44.082 -999 0.041796 0.220354 -1.070216
2009-04-29 08:05:19 51°22.64 2°44.067 -999 0.041796 0.220354 -1.070216
2009-04-29 08:05:24 51°22.655 2°44.055 -999 0.042208 0.222568 -1.070216
2009-04-29 08:05:29 51°22.67 2°44.043 -999 0.043237 0.2281 -1.070216
2009-04-29 08:05:33 51°22.682 2°44.034 -999 0.04231 0.223127 -1.070216
2009-04-29 08:05:39 51°22.701 2°44.02 -999 0.042105 0.22202 -1.070216
2009-04-29 08:05:43 51°22.713 2°44.01 -999 0.04231 0.22312 -1.070216
2009-04-29 08:05:49 51°22.731 2°43.997 -999 0.04231 0.22312 -1.070216
2009-04-29 08:05:53 51°22.743 2°43.987 -999 0.041384 0.218145 -1.070216
2009-04-29 08:05:59 51°22.76 2°43.972 -999 0.041796 0.220339 -1.10504
2009-04-29 08:06:04 51°22.775 2°43.96 -999 0.042516 0.224197 -1.070216
2009-04-29 08:06:08 51°22.787 2°43.95 -999 0.042825 0.22585 -1.070216
2009-04-29 08:06:13 51°22.802 2°43.938 -999 0.042722 0.225298 -1.070216
2009-04-29 08:06:19 51°22.82 2°43.922 -999 0.042722 0.225298 -1.070216
2009-04-29 08:06:23 51°22.831 2°43.911 -999 0.042002 0.221431 -1.070216
2009-04-29 08:06:29 51°22.849 2°43.895 -999 0.042825 0.225835 -1.070216
2009-04-29 08:06:33 51°22.861 2°43.885 -999 0.042619 0.224731 -1.070216
2009-04-29 08:06:39 51°22.878 2°43.869 -999 0.042722 0.225309 -1.070216
2009-04-29 08:06:44 51°22.893 2°43.856 -999 0.043237 0.228078 -1.070216
2009-04-29 08:06:48 51°22.904 2°43.845 -999 0.043237 0.228078 -1.070216
2009-04-29 08:06:53 51°22.919 2°43.831 -999 0.042722 0.225328 -1.070216
2009-04-29 08:06:59 51°22.936 2°43.815 -999 0.042516 0.224238 -1.070216
2009-04-29 08:07:04 51°22.951 2°43.802 -999 0.042105 0.222031 -1.070216
2009-04-29 08:07:09 51°22.965 2°43.788 -999 0.042002 0.221486 -1.070216
2009-04-29 08:07:13 51°22.977 2°43.777 -999 0.04231 0.223146 -1.070216
2009-04-29 08:07:18 51°22.992 2°43.764 -999 0.04231 0.223146 -1.070216
2009-04-29 08:07:24 51°23.01 2°43.748 -999 0.043237 0.228127 -1.070216
2009-04-29 08:07:29 51°23.024 2°43.734 -999 0.042619 0.224835 -1.070216
2009-04-29 08:07:33 51°23.036 2°43.724 -999 0.041796 0.22042 -1.070216
2009-04-29 08:07:39 51°23.054 2°43.707 -999 0.043134 0.227624 -1.070216
2009-04-29 08:07:44 51°23.069 2°43.695 -999 0.042516 0.224313 -1.070216
2009-04-29 08:07:49 51°23.084 2°43.683 -999 0.042516 0.224313 -1.070216
2009-04-29 08:07:53 51°23.096 2°43.673 -999 0.041693 0.219894 -1.070216
2009-04-29 08:07:59 51°23.113 2°43.658 -999 0.04159 0.219342 -1.070216
2009-04-29 08:08:03 51°23.125 2°43.647 -999 0.041899 0.221001 -1.070216
2009-04-29 08:08:09 51°23.143 2°43.632 -999 0.04231 0.223209 -1.070216
2009-04-29 08:08:13 51°23.155 2°43.622 -999 0.042002 0.221553 -1.070216
2009-04-29 08:08:19 51°23.173 2°43.607 -999 0.042002 0.221553 -1.070216
2009-04-29 08:08:24 51°23.189 2°43.594 -999 0.04159 0.219328 -1.070216
2009-04-29 08:08:28 51°23.201 2°43.584 -999 0.04159 0.219328 -1.070216
2009-04-29 08:08:33 51°23.216 2°43.572 -999 0.042105 0.222097 -1.070216
2009-04-29 08:08:39 51°23.234 2°43.557 -999 0.042413 0.223757 -1.070216
2009-04-29 08:08:43 51°23.246 2°43.547 -999 0.041796 0.220431 -1.070216
2009-04-29 08:08:49 51°23.264 2°43.533 -999 0.041796 0.220431 -1.070216
2009-04-29 08:08:53 51°23.276 2°43.524 -999 0.041487 0.21878 -1.070216
2009-04-29 08:08:59 51°23.293 2°43.51 -999 0.042516 0.224317 -1.070216
2009-04-29 08:09:04 51°23.309 2°43.498 -999 0.04159 0.219342 -1.070216
2009-04-29 08:09:09 51°23.323 2°43.485 -999 0.042208 0.222653 -1.070216
2009-04-29 08:09:13 51°23.335 2°43.476 -999 0.040973 0.216027 -1.070216
2009-04-29 08:09:18 51°23.35 2°43.464 -999 0.040973 0.216027 -1.070216
2009-04-29 08:09:24 51°23.368 2°43.45 -999 0.041899 0.221005 -1.070216
2009-04-29 08:09:29 51°23.384 2°43.438 -999 0.04159 0.219353 -1.070216
2009-04-29 08:09:33 51°23.396 2°43.429 -999 0.04231 0.223216 -1.070216
2009-04-29 08:09:38 51°23.411 2°43.418 -999 0.042722 0.225448 -1.070216
2009-04-29 08:09:43 51°23.426 2°43.406 -999 0.042105 0.222138 -1.070216
2009-04-29 08:09:49 51°23.444 2°43.393 -999 0.042105 0.222138 -1.070216
2009-04-29 08:09:53 51°23.457 2°43.384 -999 0.042516 0.224354 -1.070216
2009-04-29 08:09:59 51°23.475 2°43.371 -999 0.041384 0.218279 -1.070216
2009-04-29 08:10:03 51°23.487 2°43.361 -999 0.041796 0.220486 -1.070216
2009-04-29 08:10:09 51°23.505 2°43.347 -999 0.042413 0.223809 -1.070216
2009-04-29 08:10:13 51°23.517 2°43.338 -999 0.042722 0.225463 -1.070216
2009-04-29 08:10:18 51°23.532 2°43.327 -999 0.042722 0.225463 -1.070216
2009-04-29 08:10:24 51°23.55 2°43.313 -999 0.042619 0.224906 -1.070216
2009-04-29 08:10:28 51°23.562 2°43.304 -999 0.042413 0.223802 -1.070216
2009-04-29 08:10:33 51°23.577 2°43.292 -999 0.042516 0.224354 -1.070216
2009-04-29 08:10:39 51°23.596 2°43.278 -999 0.041899 0.221034 -1.070216
2009-04-29 08:10:43 51°23.608 2°43.269 -999 0.041384 0.218268 -1.070216
2009-04-29 08:10:49 51°23.626 2°43.254 -999 0.041384 0.218268 -1.070216
2009-04-29 08:10:54 51°23.641 2°43.242 -999 0.042722 0.225448 -1.070216
2009-04-29 08:10:59 51°23.657 2°43.231 -999 0.042722 0.225466 -1.070216
2009-04-29 08:11:04 51°23.672 2°43.219 -999 0.042619 0.224925 -1.070216
2009-04-29 08:11:08 51°23.684 2°43.209 -999 0.041693 0.219971 -1.070216
2009-04-29 08:11:13 51°23.699 2°43.197 -999 0.042516 0.224399 -1.070216
2009-04-29 08:11:19 51°23.717 2°43.183 -999 0.042516 0.224399 -1.070216
2009-04-29 08:11:24 51°23.732 2°43.171 -999 0.041487 0.218863 -1.070216
2009-04-29 08:11:29 51°23.748 2°43.159 -999 0.042105 0.222182 -1.070216
2009-04-29 08:11:33 51°23.76 2°43.149 -999 0.042722 0.225493 -1.070216
2009-04-29 08:11:38 51°23.775 2°43.137 -999 0.042516 0.224391 -1.070216
2009-04-29 08:11:44 51°23.793 2°43.123 -999 0.041487 0.218871 -1.070216
2009-04-29 08:11:49 51°23.808 2°43.111 -999 0.041487 0.218871 -1.070216
2009-04-29 08:11:53 51°23.82 2°43.1 -999 0.042516 0.224388 -1.070216
2009-04-29 08:11:59 51°23.838 2°43.085 -999 0.041384 0.218319 -1.070216
2009-04-29 08:12:03 51°23.85 2°43.075 -999 0.041487 0.218878 -1.070216
2009-04-29 08:12:09 51°23.868 2°43.059 -999 0.042413 0.223869 -1.070216
2009-04-29 08:12:13 51°23.88 2°43.049 -999 0.041384 0.218352 -1.070216
2009-04-29 08:12:18 51°23.895 2°43.037 -999 0.041384 0.218352 -1.070216
2009-04-29 08:12:24 51°23.912 2°43.021 -999 0.042208 0.222764 -1.070216
2009-04-29 08:12:28 51°23.924 2°43.011 -999 0.041178 0.217241 -1.070216
2009-04-29 08:12:33 51°23.939 2°42.998 -999 0.040973 0.216127 -1.070216
2009-04-29 08:12:39 51°23.957 2°42.983 -999 0.042105 0.222204 -1.070216
2009-04-29 08:12:43 51°23.969 2°42.973 -999 0.042619 0.224978 -1.070216
2009-04-29 08:12:49 51°23.987 2°42.958 -999 0.042619 0.224978 -1.070216
2009-04-29 08:12:53 51°23.999 2°42.948 -999 0.04231 0.223335 -1.070216
2009-04-29 08:12:59 51°24.018 2°42.934 -999 0.041796 0.220574 -1.070216
2009-04-29 08:13:04 51°24.033 2°42.922 -999 0.042619 0.224996 -1.070216
2009-04-29 08:13:08 51°24.045 2°42.912 -999 0.042208 0.222783 -1.070216
2009-04-29 08:13:13 51°24.06 2°42.901 -999 0.041693 0.220022 -1.070216
2009-04-29 08:13:19 51°24.078 2°42.886 -999 0.041693 0.220022 -1.070216
2009-04-29 08:13:24 51°24.093 2°42.874 -999 0.041384 0.21837 -1.070216
2009-04-29 08:13:29 51°24.108 2°42.861 -999 0.042002 0.221682 -1.070216
2009-04-29 08:13:33 51°24.12 2°42.851 -999 0.042105 0.222238 -1.070216
2009-04-29 08:13:39 51°24.138 2°42.836 -999 0.041899 0.221144 -1.070216
2009-04-29 08:13:44 51°24.154 2°42.823 -999 0.041281 0.217818 -1.070216
2009-04-29 08:13:49 51°24.168 2°42.81 -999 0.041281 0.217818 -1.070216
2009-04-29 08:13:53 51°24.181 2°42.8 -999 0.042105 0.222238 -1.070216
2009-04-29 08:13:58 51°24.196 2°42.787 -999 0.041796 0.220578 -1.070216
2009-04-29 08:14:04 51°24.214 2°42.772 -999 0.041796 0.220589 -1.070216
2009-04-29 08:14:09 51°24.229 2°42.759 -999 0.04231 0.223357 -1.070216
2009-04-29 08:14:13 51°24.241 2°42.749 -999 0.04231 0.223365 -1.070216
2009-04-29 08:14:18 51°24.256 2°42.737 -999 0.04231 0.223365 -1.070216
2009-04-29 08:14:24 51°24.274 2°42.721 -999 0.042413 0.223944 -1.070216
2009-04-29 08:14:29 51°24.289 2°42.709 -999 0.041899 0.221192 -1.070216
2009-04-29 08:14:33 51°24.301 2°42.699 -999 0.042105 0.222304 -1.070216
2009-04-29 08:14:39 51°24.319 2°42.684 -999 0.042413 0.223951 -1.070216
2009-04-29 08:14:43 51°24.331 2°42.674 -999 0.04159 0.219525 -1.070216
2009-04-29 08:14:49 51°24.349 2°42.659 -999 0.04159 0.219525 -1.070216
2009-04-29 08:14:53 51°24.361 2°42.649 -999 0.04231 0.223387 -1.070216
2009-04-29 08:14:59 51°24.378 2°42.633 -999 0.042619 0.225056 -1.070216
2009-04-29 08:15:04 51°24.393 2°42.621 -999 0.041384 0.218432 -1.070216
2009-04-29 08:15:08 51°24.405 2°42.61 -999 0.042105 0.222301 -1.070216
2009-04-29 08:15:13 51°24.42 2°42.598 -999 0.041796 0.22064 -1.070216
2009-04-29 08:15:19 51°24.438 2°42.581 -999 0.041796 0.22064 -1.070216
2009-04-29 08:15:23 51°24.45 2°42.571 -999 0.04159 0.219532 -1.070216
2009-04-29 08:15:29 51°24.467 2°42.556 -999 0.04159 0.219528 -1.070216
2009-04-29 08:15:33 51°24.479 2°42.545 -999 0.04159 0.219532 -1.070216
2009-04-29 08:15:39 51°24.496 2°42.529 -999 0.041693 0.220102 -1.070216
2009-04-29 08:15:44 51°24.511 2°42.516 -999 0.041487 0.219009 -1.070216
2009-04-29 08:15:49 51°24.525 2°42.502 -999 0.041487 0.219009 -1.070216
2009-04-29 08:15:53 51°24.537 2°42.492 -999 0.041076 0.216809 -1.070216
2009-04-29 08:15:59 51°24.554 2°42.475 -999 0.041076 0.216816 -1.070216
2009-04-29 08:16:04 51°24.569 2°42.462 -999 0.041693 0.220124 -1.070216
2009-04-29 08:16:09 51°24.583 2°42.449 -999 0.042105 0.222367 -1.070216
2009-04-29 08:16:13 51°24.595 2°42.439 -999 0.041899 0.221255 -1.070216
2009-04-29 08:16:18 51°24.61 2°42.426 -999 0.041899 0.221255 -1.070216
2009-04-29 08:16:24 51°24.627 2°42.411 -999 0.041487 0.219031 -1.070216
2009-04-29 08:16:29 51°24.642 2°42.398 -999 0.041487 0.219024 -1.070216
2009-04-29 08:16:33 51°24.654 2°42.388 -999 0.042002 0.221789 -1.070216
2009-04-29 08:16:39 51°24.672 2°42.372 -999 0.041384 0.218468 -1.070216
2009-04-29 08:16:43 51°24.684 2°42.362 -999 0.041076 0.216801 -1.070216
2009-04-29 08:16:49 51°24.701 2°42.346 -999 0.041076 0.216801 -1.070216
2009-04-29 08:16:53 51°24.713 2°42.336 -999 0.040973 0.216246 -1.070216
2009-04-29 08:16:58 51°24.728 2°42.323 -999 0.04159 0.219561 -1.070216
2009-04-29 08:17:04 51°24.746 2°42.308 -999 0.041796 0.220669 -1.070216
2009-04-29 08:17:08 51°24.757 2°42.298 -999 0.041796 0.220691 -1.070216
2009-04-29 08:17:13 51°24.772 2°42.285 -999 0.04159 0.21959 -1.070216
2009-04-29 08:17:19 51°24.79 2°42.27 -999 0.04159 0.21959 -1.070216
2009-04-29 08:17:23 51°24.802 2°42.26 -999 0.041281 0.217949 -1.070216
2009-04-29 08:17:29 51°24.82 2°42.245 -999 0.041796 0.220728 -1.070216
2009-04-29 08:17:34 51°24.835 2°42.232 -999 0.040973 0.216307 -1.070216
2009-04-29 08:17:39 51°24.85 2°42.219 -999 0.041796 0.220739 -1.035392
2009-04-29 08:17:44 51°24.865 2°42.207 -999 0.041076 0.216863 -1.070216
2009-04-29 08:17:48 51°24.876 2°42.197 -999 0.041076 0.216863 -1.070216
2009-04-29 08:17:53 51°24.891 2°42.184 -999 0.042002 0.221837 -1.070216
2009-04-29 08:17:59 51°24.909 2°42.168 -999 0.040973 0.216304 -1.070216
2009-04-29 08:18:04 51°24.924 2°42.156 -999 0.04159 0.219616 -1.070216
2009-04-29 08:18:09 51°24.939 2°42.144 -999 0.04159 0.219609 -1.070216
2009-04-29 08:18:13 51°24.95 2°42.134 -999 0.041899 0.221266 -1.070216
2009-04-29 08:18:18 51°24.965 2°42.122 -999 0.041899 0.221266 -1.070216
2009-04-29 08:18:24 51°24.983 2°42.108 -999 0.043134 0.22792 -1.070216
2009-04-29 08:18:29 51°24.998 2°42.096 -999 0.04159 0.219627 -1.070216
2009-04-29 08:18:33 51°25.01 2°42.086 -999 0.04159 0.219627 -1.070216
2009-04-29 08:18:39 51°25.028 2°42.072 -999 0.041796 0.220736 -1.070216
2009-04-29 08:18:44 51°25.043 2°42.059 -999 0.041281 0.21797 -1.070216
2009-04-29 08:18:49 51°25.058 2°42.047 -999 0.041281 0.21797 -1.070216
2009-04-29 08:18:53 51°25.07 2°42.037 -999 0.042619 0.225165 -1.070216
2009-04-29 08:18:59 51°25.088 2°42.023 -999 0.041796 0.220736 -1.070216
2009-04-29 08:19:03 51°25.1 2°42.013 -999 0.042413 0.224052 -1.070216
2009-04-29 08:19:09 51°25.118 2°41.999 -999 0.041796 0.220743 -1.070216
2009-04-29 08:19:13 51°25.13 2°41.989 -999 0.041178 0.217422 -1.070216
2009-04-29 08:19:19 51°25.148 2°41.975 -999 0.041178 0.217422 -1.070216
2009-04-29 08:19:24 51°25.163 2°41.963 -999 0.042413 0.224059 -1.070216
2009-04-29 08:19:29 51°25.178 2°41.951 -999 0.041796 0.220758 -1.070216
2009-04-29 08:19:33 51°25.19 2°41.941 -999 0.041899 0.221307 -1.070216
2009-04-29 08:19:39 51°25.207 2°41.926 -999 0.041693 0.220194 -1.070216
2009-04-29 08:19:43 51°25.219 2°41.916 -999 0.041384 0.21853 -1.035392
2009-04-29 08:19:49 51°25.237 2°41.902 -999 0.041384 0.21853 -1.035392
2009-04-29 08:19:54 51°25.252 2°41.89 -999 0.042002 0.221844 -1.070216
2009-04-29 08:19:59 51°25.267 2°41.878 -999 0.041487 0.219086 -1.070216
2009-04-29 08:20:04 51°25.282 2°41.866 -999 0.041178 0.217429 -1.070216
2009-04-29 08:20:08 51°25.294 2°41.856 -999 0.042413 0.224093 -1.070216
2009-04-29 08:20:13 51°25.309 2°41.844 -999 0.041899 0.221336 -1.070216
2009-04-29 08:20:19 51°25.327 2°41.829 -999 0.041899 0.221336 -1.070216
2009-04-29 08:20:24 51°25.342 2°41.817 -999 0.04159 0.219671 -1.070216
2009-04-29 08:20:29 51°25.357 2°41.805 -999 0.042413 0.224119 -1.070216
2009-04-29 08:20:33 51°25.369 2°41.796 -999 0.041693 0.220249 -1.070216
2009-04-29 08:20:38 51°25.383 2°41.784 -999 0.042619 0.225218 -1.070216
2009-04-29 08:20:44 51°25.401 2°41.769 -999 0.041281 0.218025 -1.070216
2009-04-29 08:20:49 51°25.416 2°41.756 -999 0.041281 0.218025 -1.070216
2009-04-29 08:20:53 51°25.428 2°41.746 -999 0.041487 0.219111 -1.070216
2009-04-29 08:20:58 51°25.443 2°41.734 -999 0.041281 0.21801 -1.070216
2009-04-29 08:21:04 51°25.46 2°41.718 -999 0.04231 0.223551 -1.070216
2009-04-29 08:21:09 51°25.475 2°41.706 -999 0.041076 0.216917 -1.070216
2009-04-29 08:21:13 51°25.487 2°41.696 -999 0.04231 0.223577 -1.070216
2009-04-29 08:21:18 51°25.502 2°41.683 -999 0.04231 0.223577 -1.070216
2009-04-29 08:21:24 51°25.519 2°41.667 -999 0.041487 0.219148 -1.070216
2009-04-29 08:21:29 51°25.534 2°41.655 -999 0.041281 0.218039 -1.070216
2009-04-29 08:21:33 51°25.546 2°41.644 -999 0.041693 0.22026 -1.070216
2009-04-29 08:21:39 51°25.563 2°41.628 -999 0.041384 0.218592 -1.070216
2009-04-29 08:21:43 51°25.575 2°41.618 -999 0.041384 0.218592 -1.070216